<?xml version="1.0" encoding="UTF-8" standalone="no" ?>
<gpx xmlns="http://www.topografix.com/GPX/1/1" xmlns:xsi="http://www.w3.org/2001/XMLSchema-instance" xsi:schemaLocation="http://www.topografix.com/GPX/1/1 http://www.topografix.com/GPX/1/1/gpx.xsd" version="1.1" creator="VisuGPX - https://www.visugpx.com">
  <metadata>
    <name>De Paulhiac vers Biron</name>
    <desc><![CDATA[De Paulhiac vers Biron]]></desc>
  </metadata>
  <trk>
    <name><![CDATA[18-JAN-15 12:18:51]]></name>
    <trkseg>
      <trkpt lat="44.5616" lon="0.82027">
        <ele>148.66</ele>
        <time>2015-01-18T08:11:43Z</time>
      </trkpt>
      <trkpt lat="44.5616" lon="0.82027">
        <ele>148.66</ele>
        <time>2015-01-18T08:11:58Z</time>
      </trkpt>
      <trkpt lat="44.56169" lon="0.8204">
        <ele>147.7</ele>
        <time>2015-01-18T08:12:06Z</time>
      </trkpt>
      <trkpt lat="44.56189" lon="0.82064">
        <ele>146.74</ele>
        <time>2015-01-18T08:12:20Z</time>
      </trkpt>
      <trkpt lat="44.56217" lon="0.82108">
        <ele>146.26</ele>
        <time>2015-01-18T08:12:36Z</time>
      </trkpt>
      <trkpt lat="44.56261" lon="0.8216">
        <ele>143.37</ele>
        <time>2015-01-18T08:12:53Z</time>
      </trkpt>
      <trkpt lat="44.56326" lon="0.82244">
        <ele>140.49</ele>
        <time>2015-01-18T08:13:09Z</time>
      </trkpt>
      <trkpt lat="44.56391" lon="0.82346">
        <ele>140.97</ele>
        <time>2015-01-18T08:13:28Z</time>
      </trkpt>
      <trkpt lat="44.56456" lon="0.82431">
        <ele>145.78</ele>
        <time>2015-01-18T08:13:48Z</time>
      </trkpt>
      <trkpt lat="44.56507" lon="0.82478">
        <ele>146.74</ele>
        <time>2015-01-18T08:14:03Z</time>
      </trkpt>
      <trkpt lat="44.56533" lon="0.8251">
        <ele>145.3</ele>
        <time>2015-01-18T08:14:11Z</time>
      </trkpt>
      <trkpt lat="44.56547" lon="0.82508">
        <ele>145.3</ele>
        <time>2015-01-18T08:14:16Z</time>
      </trkpt>
      <trkpt lat="44.56578" lon="0.82444">
        <ele>147.22</ele>
        <time>2015-01-18T08:14:32Z</time>
      </trkpt>
      <trkpt lat="44.56599" lon="0.82391">
        <ele>147.22</ele>
        <time>2015-01-18T08:14:45Z</time>
      </trkpt>
      <trkpt lat="44.56603" lon="0.82379">
        <ele>147.7</ele>
        <time>2015-01-18T08:14:49Z</time>
      </trkpt>
      <trkpt lat="44.56596" lon="0.82363">
        <ele>148.66</ele>
        <time>2015-01-18T08:14:55Z</time>
      </trkpt>
      <trkpt lat="44.56572" lon="0.82332">
        <ele>150.58</ele>
        <time>2015-01-18T08:15:08Z</time>
      </trkpt>
      <trkpt lat="44.56584" lon="0.82299">
        <ele>150.1</ele>
        <time>2015-01-18T08:15:19Z</time>
      </trkpt>
      <trkpt lat="44.56598" lon="0.82248">
        <ele>148.66</ele>
        <time>2015-01-18T08:15:34Z</time>
      </trkpt>
      <trkpt lat="44.56604" lon="0.82191">
        <ele>147.22</ele>
        <time>2015-01-18T08:15:49Z</time>
      </trkpt>
      <trkpt lat="44.56642" lon="0.82157">
        <ele>145.3</ele>
        <time>2015-01-18T08:16:03Z</time>
      </trkpt>
      <trkpt lat="44.56694" lon="0.82134">
        <ele>145.78</ele>
        <time>2015-01-18T08:16:19Z</time>
      </trkpt>
      <trkpt lat="44.56706" lon="0.8213">
        <ele>145.3</ele>
        <time>2015-01-18T08:16:23Z</time>
      </trkpt>
      <trkpt lat="44.56716" lon="0.82137">
        <ele>144.82</ele>
        <time>2015-01-18T08:16:28Z</time>
      </trkpt>
      <trkpt lat="44.5673" lon="0.82156">
        <ele>143.85</ele>
        <time>2015-01-18T08:16:34Z</time>
      </trkpt>
      <trkpt lat="44.56751" lon="0.82165">
        <ele>142.89</ele>
        <time>2015-01-18T08:16:41Z</time>
      </trkpt>
      <trkpt lat="44.56789" lon="0.82204">
        <ele>139.53</ele>
        <time>2015-01-18T08:16:54Z</time>
      </trkpt>
      <trkpt lat="44.568" lon="0.82199">
        <ele>138.57</ele>
        <time>2015-01-18T08:16:57Z</time>
      </trkpt>
      <trkpt lat="44.56808" lon="0.8218">
        <ele>138.09</ele>
        <time>2015-01-18T08:17:01Z</time>
      </trkpt>
      <trkpt lat="44.56814" lon="0.82161">
        <ele>137.13</ele>
        <time>2015-01-18T08:17:05Z</time>
      </trkpt>
      <trkpt lat="44.56834" lon="0.82156">
        <ele>135.68</ele>
        <time>2015-01-18T08:17:11Z</time>
      </trkpt>
      <trkpt lat="44.56872" lon="0.82159">
        <ele>134.72</ele>
        <time>2015-01-18T08:17:23Z</time>
      </trkpt>
      <trkpt lat="44.56908" lon="0.82157">
        <ele>134.24</ele>
        <time>2015-01-18T08:17:33Z</time>
      </trkpt>
      <trkpt lat="44.56918" lon="0.82173">
        <ele>134.72</ele>
        <time>2015-01-18T08:17:38Z</time>
      </trkpt>
      <trkpt lat="44.56941" lon="0.82191">
        <ele>135.2</ele>
        <time>2015-01-18T08:17:48Z</time>
      </trkpt>
      <trkpt lat="44.56996" lon="0.82187">
        <ele>137.13</ele>
        <time>2015-01-18T08:18:05Z</time>
      </trkpt>
      <trkpt lat="44.57029" lon="0.82185">
        <ele>138.57</ele>
        <time>2015-01-18T08:18:16Z</time>
      </trkpt>
      <trkpt lat="44.57049" lon="0.82182">
        <ele>137.61</ele>
        <time>2015-01-18T08:18:26Z</time>
      </trkpt>
      <trkpt lat="44.57052" lon="0.82187">
        <ele>137.61</ele>
        <time>2015-01-18T08:18:29Z</time>
      </trkpt>
      <trkpt lat="44.5707" lon="0.82223">
        <ele>137.61</ele>
        <time>2015-01-18T08:18:41Z</time>
      </trkpt>
      <trkpt lat="44.57085" lon="0.82263">
        <ele>137.61</ele>
        <time>2015-01-18T08:18:54Z</time>
      </trkpt>
      <trkpt lat="44.571" lon="0.82303">
        <ele>135.2</ele>
        <time>2015-01-18T08:19:06Z</time>
      </trkpt>
      <trkpt lat="44.57124" lon="0.82341">
        <ele>135.2</ele>
        <time>2015-01-18T08:19:19Z</time>
      </trkpt>
      <trkpt lat="44.57156" lon="0.82368">
        <ele>134.72</ele>
        <time>2015-01-18T08:19:30Z</time>
      </trkpt>
      <trkpt lat="44.57216" lon="0.82401">
        <ele>128.95</ele>
        <time>2015-01-18T08:19:40Z</time>
      </trkpt>
      <trkpt lat="44.57253" lon="0.82397">
        <ele>126.55</ele>
        <time>2015-01-18T08:19:45Z</time>
      </trkpt>
      <trkpt lat="44.57276" lon="0.82394">
        <ele>125.59</ele>
        <time>2015-01-18T08:19:48Z</time>
      </trkpt>
      <trkpt lat="44.57348" lon="0.82421">
        <ele>121.74</ele>
        <time>2015-01-18T08:19:58Z</time>
      </trkpt>
      <trkpt lat="44.57458" lon="0.82477">
        <ele>117.9</ele>
        <time>2015-01-18T08:20:11Z</time>
      </trkpt>
      <trkpt lat="44.575" lon="0.82495">
        <ele>116.46</ele>
        <time>2015-01-18T08:20:17Z</time>
      </trkpt>
      <trkpt lat="44.57508" lon="0.82507">
        <ele>115.98</ele>
        <time>2015-01-18T08:20:29Z</time>
      </trkpt>
      <trkpt lat="44.57508" lon="0.82507">
        <ele>114.53</ele>
        <time>2015-01-18T08:20:48Z</time>
      </trkpt>
      <trkpt lat="44.57516" lon="0.82505">
        <ele>114.53</ele>
        <time>2015-01-18T08:20:52Z</time>
      </trkpt>
      <trkpt lat="44.57537" lon="0.8251">
        <ele>113.57</ele>
        <time>2015-01-18T08:20:57Z</time>
      </trkpt>
      <trkpt lat="44.57549" lon="0.82526">
        <ele>114.05</ele>
        <time>2015-01-18T08:21:01Z</time>
      </trkpt>
      <trkpt lat="44.57555" lon="0.82541">
        <ele>114.53</ele>
        <time>2015-01-18T08:21:04Z</time>
      </trkpt>
      <trkpt lat="44.57574" lon="0.82581">
        <ele>119.34</ele>
        <time>2015-01-18T08:21:15Z</time>
      </trkpt>
      <trkpt lat="44.57588" lon="0.82611">
        <ele>123.67</ele>
        <time>2015-01-18T08:21:27Z</time>
      </trkpt>
      <trkpt lat="44.57622" lon="0.82654">
        <ele>128.47</ele>
        <time>2015-01-18T08:21:43Z</time>
      </trkpt>
      <trkpt lat="44.57641" lon="0.82665">
        <ele>130.88</ele>
        <time>2015-01-18T08:21:51Z</time>
      </trkpt>
      <trkpt lat="44.57677" lon="0.82616">
        <ele>131.36</ele>
        <time>2015-01-18T08:22:07Z</time>
      </trkpt>
      <trkpt lat="44.57701" lon="0.82591">
        <ele>131.36</ele>
        <time>2015-01-18T08:22:17Z</time>
      </trkpt>
      <trkpt lat="44.57738" lon="0.82612">
        <ele>137.61</ele>
        <time>2015-01-18T08:22:31Z</time>
      </trkpt>
      <trkpt lat="44.57772" lon="0.82602">
        <ele>140.01</ele>
        <time>2015-01-18T08:22:44Z</time>
      </trkpt>
      <trkpt lat="44.57809" lon="0.82585">
        <ele>141.93</ele>
        <time>2015-01-18T08:22:57Z</time>
      </trkpt>
      <trkpt lat="44.57856" lon="0.82542">
        <ele>140.97</ele>
        <time>2015-01-18T08:23:12Z</time>
      </trkpt>
      <trkpt lat="44.57905" lon="0.82503">
        <ele>142.89</ele>
        <time>2015-01-18T08:23:27Z</time>
      </trkpt>
      <trkpt lat="44.57934" lon="0.82483">
        <ele>144.82</ele>
        <time>2015-01-18T08:23:38Z</time>
      </trkpt>
      <trkpt lat="44.57975" lon="0.82464">
        <ele>145.3</ele>
        <time>2015-01-18T08:23:52Z</time>
      </trkpt>
      <trkpt lat="44.58002" lon="0.82473">
        <ele>148.18</ele>
        <time>2015-01-18T08:24:06Z</time>
      </trkpt>
      <trkpt lat="44.58005" lon="0.82473">
        <ele>148.18</ele>
        <time>2015-01-18T08:24:21Z</time>
      </trkpt>
      <trkpt lat="44.58006" lon="0.82473">
        <ele>148.66</ele>
        <time>2015-01-18T08:24:42Z</time>
      </trkpt>
      <trkpt lat="44.58007" lon="0.8248">
        <ele>148.66</ele>
        <time>2015-01-18T08:24:46Z</time>
      </trkpt>
      <trkpt lat="44.57988" lon="0.82563">
        <ele>148.66</ele>
        <time>2015-01-18T08:25:04Z</time>
      </trkpt>
      <trkpt lat="44.57979" lon="0.82645">
        <ele>149.14</ele>
        <time>2015-01-18T08:25:20Z</time>
      </trkpt>
      <trkpt lat="44.57988" lon="0.82727">
        <ele>150.58</ele>
        <time>2015-01-18T08:25:36Z</time>
      </trkpt>
      <trkpt lat="44.58001" lon="0.82814">
        <ele>152.51</ele>
        <time>2015-01-18T08:25:54Z</time>
      </trkpt>
      <trkpt lat="44.58023" lon="0.82885">
        <ele>152.99</ele>
        <time>2015-01-18T08:26:08Z</time>
      </trkpt>
      <trkpt lat="44.58036" lon="0.82886">
        <ele>152.99</ele>
        <time>2015-01-18T08:26:12Z</time>
      </trkpt>
      <trkpt lat="44.58074" lon="0.82853">
        <ele>152.51</ele>
        <time>2015-01-18T08:26:22Z</time>
      </trkpt>
      <trkpt lat="44.58153" lon="0.82786">
        <ele>150.1</ele>
        <time>2015-01-18T08:26:42Z</time>
      </trkpt>
      <trkpt lat="44.58252" lon="0.82724">
        <ele>147.7</ele>
        <time>2015-01-18T08:27:02Z</time>
      </trkpt>
      <trkpt lat="44.58343" lon="0.8269">
        <ele>146.74</ele>
        <time>2015-01-18T08:27:19Z</time>
      </trkpt>
      <trkpt lat="44.58412" lon="0.82643">
        <ele>147.22</ele>
        <time>2015-01-18T08:27:33Z</time>
      </trkpt>
      <trkpt lat="44.58494" lon="0.82567">
        <ele>147.22</ele>
        <time>2015-01-18T08:27:51Z</time>
      </trkpt>
      <trkpt lat="44.58552" lon="0.8251">
        <ele>148.18</ele>
        <time>2015-01-18T08:28:06Z</time>
      </trkpt>
      <trkpt lat="44.58569" lon="0.82494">
        <ele>148.18</ele>
        <time>2015-01-18T08:28:12Z</time>
      </trkpt>
      <trkpt lat="44.58573" lon="0.82481">
        <ele>149.14</ele>
        <time>2015-01-18T08:28:24Z</time>
      </trkpt>
      <trkpt lat="44.58573" lon="0.82479">
        <ele>148.66</ele>
        <time>2015-01-18T08:28:45Z</time>
      </trkpt>
      <trkpt lat="44.58573" lon="0.82479">
        <ele>150.1</ele>
        <time>2015-01-18T08:29:15Z</time>
      </trkpt>
      <trkpt lat="44.58573" lon="0.82479">
        <ele>151.06</ele>
        <time>2015-01-18T08:29:43Z</time>
      </trkpt>
      <trkpt lat="44.58575" lon="0.82479">
        <ele>150.58</ele>
        <time>2015-01-18T08:30:04Z</time>
      </trkpt>
      <trkpt lat="44.58574" lon="0.82479">
        <ele>150.1</ele>
        <time>2015-01-18T08:30:22Z</time>
      </trkpt>
      <trkpt lat="44.58574" lon="0.82481">
        <ele>150.1</ele>
        <time>2015-01-18T08:30:44Z</time>
      </trkpt>
      <trkpt lat="44.58574" lon="0.82481">
        <ele>150.1</ele>
        <time>2015-01-18T08:31:11Z</time>
      </trkpt>
      <trkpt lat="44.58573" lon="0.8248">
        <ele>150.1</ele>
        <time>2015-01-18T08:31:42Z</time>
      </trkpt>
      <trkpt lat="44.58573" lon="0.8248">
        <ele>150.1</ele>
        <time>2015-01-18T08:32:13Z</time>
      </trkpt>
      <trkpt lat="44.58573" lon="0.8248">
        <ele>150.1</ele>
        <time>2015-01-18T08:32:36Z</time>
      </trkpt>
      <trkpt lat="44.58573" lon="0.82479">
        <ele>149.14</ele>
        <time>2015-01-18T08:33:10Z</time>
      </trkpt>
      <trkpt lat="44.58573" lon="0.8248">
        <ele>151.06</ele>
        <time>2015-01-18T08:33:35Z</time>
      </trkpt>
      <trkpt lat="44.58573" lon="0.82479">
        <ele>151.06</ele>
        <time>2015-01-18T08:33:55Z</time>
      </trkpt>
      <trkpt lat="44.58572" lon="0.8248">
        <ele>152.51</ele>
        <time>2015-01-18T08:34:26Z</time>
      </trkpt>
      <trkpt lat="44.58572" lon="0.82479">
        <ele>151.06</ele>
        <time>2015-01-18T08:34:46Z</time>
      </trkpt>
      <trkpt lat="44.58574" lon="0.82482">
        <ele>149.14</ele>
        <time>2015-01-18T08:35:14Z</time>
      </trkpt>
      <trkpt lat="44.58575" lon="0.82482">
        <ele>149.14</ele>
        <time>2015-01-18T08:35:43Z</time>
      </trkpt>
      <trkpt lat="44.58574" lon="0.82483">
        <ele>150.1</ele>
        <time>2015-01-18T08:35:52Z</time>
      </trkpt>
      <trkpt lat="44.58579" lon="0.8249">
        <ele>149.62</ele>
        <time>2015-01-18T08:36:01Z</time>
      </trkpt>
      <trkpt lat="44.58624" lon="0.8246">
        <ele>148.66</ele>
        <time>2015-01-18T08:36:17Z</time>
      </trkpt>
      <trkpt lat="44.58668" lon="0.82432">
        <ele>149.14</ele>
        <time>2015-01-18T08:36:30Z</time>
      </trkpt>
      <trkpt lat="44.58729" lon="0.82374">
        <ele>148.18</ele>
        <time>2015-01-18T08:36:47Z</time>
      </trkpt>
      <trkpt lat="44.58744" lon="0.82375">
        <ele>148.66</ele>
        <time>2015-01-18T08:36:51Z</time>
      </trkpt>
      <trkpt lat="44.58752" lon="0.82377">
        <ele>148.66</ele>
        <time>2015-01-18T08:36:53Z</time>
      </trkpt>
      <trkpt lat="44.58773" lon="0.82382">
        <ele>147.22</ele>
        <time>2015-01-18T08:36:57Z</time>
      </trkpt>
      <trkpt lat="44.58801" lon="0.82382">
        <ele>144.82</ele>
        <time>2015-01-18T08:37:01Z</time>
      </trkpt>
      <trkpt lat="44.5885" lon="0.82389">
        <ele>140.01</ele>
        <time>2015-01-18T08:37:06Z</time>
      </trkpt>
      <trkpt lat="44.58933" lon="0.82426">
        <ele>132.8</ele>
        <time>2015-01-18T08:37:15Z</time>
      </trkpt>
      <trkpt lat="44.58938" lon="0.82458">
        <ele>130.88</ele>
        <time>2015-01-18T08:37:21Z</time>
      </trkpt>
      <trkpt lat="44.58911" lon="0.8256">
        <ele>129.43</ele>
        <time>2015-01-18T08:37:36Z</time>
      </trkpt>
      <trkpt lat="44.58919" lon="0.82587">
        <ele>129.43</ele>
        <time>2015-01-18T08:37:41Z</time>
      </trkpt>
      <trkpt lat="44.58966" lon="0.82611">
        <ele>127.51</ele>
        <time>2015-01-18T08:37:50Z</time>
      </trkpt>
      <trkpt lat="44.58986" lon="0.82657">
        <ele>127.51</ele>
        <time>2015-01-18T08:37:58Z</time>
      </trkpt>
      <trkpt lat="44.58979" lon="0.82735">
        <ele>128.95</ele>
        <time>2015-01-18T08:38:13Z</time>
      </trkpt>
      <trkpt lat="44.58983" lon="0.82752">
        <ele>128.47</ele>
        <time>2015-01-18T08:38:16Z</time>
      </trkpt>
      <trkpt lat="44.59015" lon="0.82783">
        <ele>125.11</ele>
        <time>2015-01-18T08:38:22Z</time>
      </trkpt>
      <trkpt lat="44.59032" lon="0.82788">
        <ele>123.19</ele>
        <time>2015-01-18T08:38:24Z</time>
      </trkpt>
      <trkpt lat="44.59041" lon="0.82814">
        <ele>120.78</ele>
        <time>2015-01-18T08:38:29Z</time>
      </trkpt>
      <trkpt lat="44.59025" lon="0.82891">
        <ele>122.22</ele>
        <time>2015-01-18T08:38:41Z</time>
      </trkpt>
      <trkpt lat="44.59006" lon="0.8292">
        <ele>120.78</ele>
        <time>2015-01-18T08:38:46Z</time>
      </trkpt>
      <trkpt lat="44.58981" lon="0.82936">
        <ele>120.3</ele>
        <time>2015-01-18T08:38:50Z</time>
      </trkpt>
      <trkpt lat="44.58954" lon="0.82946">
        <ele>119.82</ele>
        <time>2015-01-18T08:38:54Z</time>
      </trkpt>
      <trkpt lat="44.58897" lon="0.83007">
        <ele>121.26</ele>
        <time>2015-01-18T08:39:07Z</time>
      </trkpt>
      <trkpt lat="44.5888" lon="0.83065">
        <ele>124.15</ele>
        <time>2015-01-18T08:39:19Z</time>
      </trkpt>
      <trkpt lat="44.5885" lon="0.83105">
        <ele>128.95</ele>
        <time>2015-01-18T08:39:31Z</time>
      </trkpt>
      <trkpt lat="44.58801" lon="0.83146">
        <ele>136.64</ele>
        <time>2015-01-18T08:39:47Z</time>
      </trkpt>
      <trkpt lat="44.5876" lon="0.83177">
        <ele>140.01</ele>
        <time>2015-01-18T08:40:01Z</time>
      </trkpt>
      <trkpt lat="44.58725" lon="0.83214">
        <ele>144.34</ele>
        <time>2015-01-18T08:40:14Z</time>
      </trkpt>
      <trkpt lat="44.58678" lon="0.83274">
        <ele>145.78</ele>
        <time>2015-01-18T08:40:31Z</time>
      </trkpt>
      <trkpt lat="44.58672" lon="0.83288">
        <ele>145.78</ele>
        <time>2015-01-18T08:40:34Z</time>
      </trkpt>
      <trkpt lat="44.58683" lon="0.83306">
        <ele>145.3</ele>
        <time>2015-01-18T08:40:39Z</time>
      </trkpt>
      <trkpt lat="44.58696" lon="0.83316">
        <ele>145.3</ele>
        <time>2015-01-18T08:40:43Z</time>
      </trkpt>
      <trkpt lat="44.58711" lon="0.83328">
        <ele>144.82</ele>
        <time>2015-01-18T08:40:47Z</time>
      </trkpt>
      <trkpt lat="44.58721" lon="0.83353">
        <ele>143.85</ele>
        <time>2015-01-18T08:40:52Z</time>
      </trkpt>
      <trkpt lat="44.58746" lon="0.83402">
        <ele>140.97</ele>
        <time>2015-01-18T08:41:03Z</time>
      </trkpt>
      <trkpt lat="44.58802" lon="0.83467">
        <ele>134.24</ele>
        <time>2015-01-18T08:41:12Z</time>
      </trkpt>
      <trkpt lat="44.58799" lon="0.83516">
        <ele>128.95</ele>
        <time>2015-01-18T08:41:18Z</time>
      </trkpt>
      <trkpt lat="44.588" lon="0.83537">
        <ele>127.51</ele>
        <time>2015-01-18T08:41:20Z</time>
      </trkpt>
      <trkpt lat="44.58813" lon="0.83618">
        <ele>124.63</ele>
        <time>2015-01-18T08:41:29Z</time>
      </trkpt>
      <trkpt lat="44.58812" lon="0.83623">
        <ele>125.11</ele>
        <time>2015-01-18T08:41:32Z</time>
      </trkpt>
      <trkpt lat="44.58808" lon="0.83628">
        <ele>126.07</ele>
        <time>2015-01-18T08:41:38Z</time>
      </trkpt>
      <trkpt lat="44.58802" lon="0.8363">
        <ele>126.55</ele>
        <time>2015-01-18T08:41:43Z</time>
      </trkpt>
      <trkpt lat="44.58799" lon="0.83632">
        <ele>126.55</ele>
        <time>2015-01-18T08:41:45Z</time>
      </trkpt>
      <trkpt lat="44.58784" lon="0.83637">
        <ele>127.51</ele>
        <time>2015-01-18T08:41:53Z</time>
      </trkpt>
      <trkpt lat="44.58748" lon="0.83652">
        <ele>129.43</ele>
        <time>2015-01-18T08:42:08Z</time>
      </trkpt>
      <trkpt lat="44.58701" lon="0.83672">
        <ele>130.4</ele>
        <time>2015-01-18T08:42:23Z</time>
      </trkpt>
      <trkpt lat="44.58656" lon="0.83702">
        <ele>129.92</ele>
        <time>2015-01-18T08:42:37Z</time>
      </trkpt>
      <trkpt lat="44.58622" lon="0.83728">
        <ele>130.88</ele>
        <time>2015-01-18T08:42:51Z</time>
      </trkpt>
      <trkpt lat="44.5862" lon="0.83729">
        <ele>130.88</ele>
        <time>2015-01-18T08:42:52Z</time>
      </trkpt>
      <trkpt lat="44.58615" lon="0.83731">
        <ele>131.84</ele>
        <time>2015-01-18T08:42:55Z</time>
      </trkpt>
      <trkpt lat="44.58618" lon="0.83743">
        <ele>132.32</ele>
        <time>2015-01-18T08:43:01Z</time>
      </trkpt>
      <trkpt lat="44.58637" lon="0.83774">
        <ele>137.13</ele>
        <time>2015-01-18T08:43:14Z</time>
      </trkpt>
      <trkpt lat="44.5866" lon="0.83797">
        <ele>143.37</ele>
        <time>2015-01-18T08:43:27Z</time>
      </trkpt>
      <trkpt lat="44.58681" lon="0.83813">
        <ele>148.66</ele>
        <time>2015-01-18T08:43:38Z</time>
      </trkpt>
      <trkpt lat="44.58701" lon="0.83831">
        <ele>150.1</ele>
        <time>2015-01-18T08:43:49Z</time>
      </trkpt>
      <trkpt lat="44.58735" lon="0.83843">
        <ele>152.51</ele>
        <time>2015-01-18T08:44:04Z</time>
      </trkpt>
      <trkpt lat="44.58762" lon="0.83876">
        <ele>152.99</ele>
        <time>2015-01-18T08:44:19Z</time>
      </trkpt>
      <trkpt lat="44.58784" lon="0.839">
        <ele>154.91</ele>
        <time>2015-01-18T08:44:31Z</time>
      </trkpt>
      <trkpt lat="44.58812" lon="0.83934">
        <ele>158.27</ele>
        <time>2015-01-18T08:44:46Z</time>
      </trkpt>
      <trkpt lat="44.58814" lon="0.83939">
        <ele>158.27</ele>
        <time>2015-01-18T08:44:48Z</time>
      </trkpt>
      <trkpt lat="44.58832" lon="0.83971">
        <ele>158.27</ele>
        <time>2015-01-18T08:44:59Z</time>
      </trkpt>
      <trkpt lat="44.58861" lon="0.84039">
        <ele>153.95</ele>
        <time>2015-01-18T08:45:13Z</time>
      </trkpt>
      <trkpt lat="44.58868" lon="0.84051">
        <ele>153.47</ele>
        <time>2015-01-18T08:45:22Z</time>
      </trkpt>
      <trkpt lat="44.58872" lon="0.84055">
        <ele>153.47</ele>
        <time>2015-01-18T08:45:46Z</time>
      </trkpt>
      <trkpt lat="44.58873" lon="0.84053">
        <ele>152.51</ele>
        <time>2015-01-18T08:46:08Z</time>
      </trkpt>
      <trkpt lat="44.58888" lon="0.84066">
        <ele>152.51</ele>
        <time>2015-01-18T08:46:22Z</time>
      </trkpt>
      <trkpt lat="44.58919" lon="0.84104">
        <ele>152.03</ele>
        <time>2015-01-18T08:46:35Z</time>
      </trkpt>
      <trkpt lat="44.5893" lon="0.84111">
        <ele>152.03</ele>
        <time>2015-01-18T08:46:39Z</time>
      </trkpt>
      <trkpt lat="44.58963" lon="0.8409">
        <ele>158.27</ele>
        <time>2015-01-18T08:46:55Z</time>
      </trkpt>
      <trkpt lat="44.58996" lon="0.84067">
        <ele>160.68</ele>
        <time>2015-01-18T08:47:08Z</time>
      </trkpt>
      <trkpt lat="44.59041" lon="0.84033">
        <ele>160.68</ele>
        <time>2015-01-18T08:47:23Z</time>
      </trkpt>
      <trkpt lat="44.59091" lon="0.83997">
        <ele>161.64</ele>
        <time>2015-01-18T08:47:38Z</time>
      </trkpt>
      <trkpt lat="44.59133" lon="0.83955">
        <ele>159.72</ele>
        <time>2015-01-18T08:47:51Z</time>
      </trkpt>
      <trkpt lat="44.59166" lon="0.83889">
        <ele>157.31</ele>
        <time>2015-01-18T08:48:03Z</time>
      </trkpt>
      <trkpt lat="44.59175" lon="0.83866">
        <ele>156.35</ele>
        <time>2015-01-18T08:48:07Z</time>
      </trkpt>
      <trkpt lat="44.59194" lon="0.83763">
        <ele>153.95</ele>
        <time>2015-01-18T08:48:23Z</time>
      </trkpt>
      <trkpt lat="44.59194" lon="0.83737">
        <ele>153.47</ele>
        <time>2015-01-18T08:48:27Z</time>
      </trkpt>
      <trkpt lat="44.59195" lon="0.83691">
        <ele>153.95</ele>
        <time>2015-01-18T08:48:34Z</time>
      </trkpt>
      <trkpt lat="44.59208" lon="0.83655">
        <ele>153.47</ele>
        <time>2015-01-18T08:48:40Z</time>
      </trkpt>
      <trkpt lat="44.59236" lon="0.83601">
        <ele>151.54</ele>
        <time>2015-01-18T08:48:50Z</time>
      </trkpt>
      <trkpt lat="44.59242" lon="0.83616">
        <ele>150.1</ele>
        <time>2015-01-18T08:48:57Z</time>
      </trkpt>
      <trkpt lat="44.59241" lon="0.8362">
        <ele>150.1</ele>
        <time>2015-01-18T08:48:58Z</time>
      </trkpt>
      <trkpt lat="44.5923" lon="0.83662">
        <ele>148.66</ele>
        <time>2015-01-18T08:49:08Z</time>
      </trkpt>
      <trkpt lat="44.59244" lon="0.8369">
        <ele>146.26</ele>
        <time>2015-01-18T08:49:15Z</time>
      </trkpt>
      <trkpt lat="44.59268" lon="0.83753">
        <ele>147.22</ele>
        <time>2015-01-18T08:49:29Z</time>
      </trkpt>
      <trkpt lat="44.59291" lon="0.83777">
        <ele>148.18</ele>
        <time>2015-01-18T08:49:39Z</time>
      </trkpt>
      <trkpt lat="44.59321" lon="0.83791">
        <ele>150.58</ele>
        <time>2015-01-18T08:49:50Z</time>
      </trkpt>
      <trkpt lat="44.59325" lon="0.8379">
        <ele>150.58</ele>
        <time>2015-01-18T08:49:51Z</time>
      </trkpt>
      <trkpt lat="44.59339" lon="0.83787">
        <ele>150.58</ele>
        <time>2015-01-18T08:49:54Z</time>
      </trkpt>
      <trkpt lat="44.5935" lon="0.83788">
        <ele>150.1</ele>
        <time>2015-01-18T08:49:56Z</time>
      </trkpt>
      <trkpt lat="44.59366" lon="0.83787">
        <ele>148.66</ele>
        <time>2015-01-18T08:49:59Z</time>
      </trkpt>
      <trkpt lat="44.59381" lon="0.83779">
        <ele>148.18</ele>
        <time>2015-01-18T08:50:02Z</time>
      </trkpt>
      <trkpt lat="44.594" lon="0.83785">
        <ele>144.82</ele>
        <time>2015-01-18T08:50:07Z</time>
      </trkpt>
      <trkpt lat="44.59411" lon="0.83784">
        <ele>144.34</ele>
        <time>2015-01-18T08:50:10Z</time>
      </trkpt>
      <trkpt lat="44.59418" lon="0.83795">
        <ele>143.85</ele>
        <time>2015-01-18T08:50:13Z</time>
      </trkpt>
      <trkpt lat="44.59425" lon="0.83814">
        <ele>142.41</ele>
        <time>2015-01-18T08:50:16Z</time>
      </trkpt>
      <trkpt lat="44.59435" lon="0.83833">
        <ele>140.49</ele>
        <time>2015-01-18T08:50:19Z</time>
      </trkpt>
      <trkpt lat="44.59445" lon="0.83861">
        <ele>138.09</ele>
        <time>2015-01-18T08:50:22Z</time>
      </trkpt>
      <trkpt lat="44.59473" lon="0.83916">
        <ele>133.28</ele>
        <time>2015-01-18T08:50:28Z</time>
      </trkpt>
      <trkpt lat="44.59504" lon="0.83951">
        <ele>131.36</ele>
        <time>2015-01-18T08:50:35Z</time>
      </trkpt>
      <trkpt lat="44.59525" lon="0.83993">
        <ele>136.64</ele>
        <time>2015-01-18T08:50:46Z</time>
      </trkpt>
      <trkpt lat="44.59554" lon="0.84011">
        <ele>135.2</ele>
        <time>2015-01-18T08:50:55Z</time>
      </trkpt>
      <trkpt lat="44.59594" lon="0.84029">
        <ele>135.68</ele>
        <time>2015-01-18T08:51:07Z</time>
      </trkpt>
      <trkpt lat="44.59624" lon="0.84026">
        <ele>138.57</ele>
        <time>2015-01-18T08:51:18Z</time>
      </trkpt>
      <trkpt lat="44.59656" lon="0.84044">
        <ele>140.97</ele>
        <time>2015-01-18T08:51:30Z</time>
      </trkpt>
      <trkpt lat="44.5968" lon="0.84061">
        <ele>141.45</ele>
        <time>2015-01-18T08:51:40Z</time>
      </trkpt>
      <trkpt lat="44.59714" lon="0.84059">
        <ele>141.45</ele>
        <time>2015-01-18T08:51:52Z</time>
      </trkpt>
      <trkpt lat="44.5975" lon="0.84057">
        <ele>142.41</ele>
        <time>2015-01-18T08:52:04Z</time>
      </trkpt>
      <trkpt lat="44.59779" lon="0.84067">
        <ele>143.85</ele>
        <time>2015-01-18T08:52:14Z</time>
      </trkpt>
      <trkpt lat="44.59792" lon="0.84073">
        <ele>144.34</ele>
        <time>2015-01-18T08:52:25Z</time>
      </trkpt>
      <trkpt lat="44.59793" lon="0.84073">
        <ele>142.89</ele>
        <time>2015-01-18T08:52:42Z</time>
      </trkpt>
      <trkpt lat="44.59794" lon="0.84073">
        <ele>143.37</ele>
        <time>2015-01-18T08:52:51Z</time>
      </trkpt>
      <trkpt lat="44.59811" lon="0.84052">
        <ele>143.37</ele>
        <time>2015-01-18T08:53:04Z</time>
      </trkpt>
      <trkpt lat="44.59834" lon="0.84027">
        <ele>143.85</ele>
        <time>2015-01-18T08:53:16Z</time>
      </trkpt>
      <trkpt lat="44.59849" lon="0.84005">
        <ele>144.34</ele>
        <time>2015-01-18T08:53:24Z</time>
      </trkpt>
      <trkpt lat="44.59857" lon="0.84009">
        <ele>145.3</ele>
        <time>2015-01-18T08:53:28Z</time>
      </trkpt>
      <trkpt lat="44.59883" lon="0.84059">
        <ele>147.22</ele>
        <time>2015-01-18T08:53:43Z</time>
      </trkpt>
      <trkpt lat="44.59915" lon="0.8413">
        <ele>147.22</ele>
        <time>2015-01-18T08:54:00Z</time>
      </trkpt>
      <trkpt lat="44.59951" lon="0.84215">
        <ele>140.97</ele>
        <time>2015-01-18T08:54:11Z</time>
      </trkpt>
      <trkpt lat="44.59955" lon="0.84225">
        <ele>140.49</ele>
        <time>2015-01-18T08:54:12Z</time>
      </trkpt>
      <trkpt lat="44.59997" lon="0.84255">
        <ele>136.64</ele>
        <time>2015-01-18T08:54:18Z</time>
      </trkpt>
      <trkpt lat="44.60035" lon="0.84258">
        <ele>133.28</ele>
        <time>2015-01-18T08:54:22Z</time>
      </trkpt>
      <trkpt lat="44.60063" lon="0.84274">
        <ele>129.92</ele>
        <time>2015-01-18T08:54:26Z</time>
      </trkpt>
      <trkpt lat="44.60078" lon="0.84293">
        <ele>128.47</ele>
        <time>2015-01-18T08:54:29Z</time>
      </trkpt>
      <trkpt lat="44.60094" lon="0.84288">
        <ele>128.47</ele>
        <time>2015-01-18T08:54:34Z</time>
      </trkpt>
      <trkpt lat="44.60125" lon="0.84221">
        <ele>127.51</ele>
        <time>2015-01-18T08:54:49Z</time>
      </trkpt>
      <trkpt lat="44.6014" lon="0.84149">
        <ele>127.03</ele>
        <time>2015-01-18T08:55:03Z</time>
      </trkpt>
      <trkpt lat="44.60161" lon="0.84134">
        <ele>127.99</ele>
        <time>2015-01-18T08:55:13Z</time>
      </trkpt>
      <trkpt lat="44.6017" lon="0.84116">
        <ele>131.36</ele>
        <time>2015-01-18T08:55:20Z</time>
      </trkpt>
      <trkpt lat="44.60183" lon="0.84097">
        <ele>135.2</ele>
        <time>2015-01-18T08:55:30Z</time>
      </trkpt>
      <trkpt lat="44.60187" lon="0.84097">
        <ele>135.68</ele>
        <time>2015-01-18T08:55:32Z</time>
      </trkpt>
      <trkpt lat="44.60212" lon="0.84072">
        <ele>140.49</ele>
        <time>2015-01-18T08:55:47Z</time>
      </trkpt>
      <trkpt lat="44.60237" lon="0.8409">
        <ele>142.89</ele>
        <time>2015-01-18T08:56:01Z</time>
      </trkpt>
      <trkpt lat="44.60268" lon="0.84102">
        <ele>145.78</ele>
        <time>2015-01-18T08:56:17Z</time>
      </trkpt>
      <trkpt lat="44.60302" lon="0.84102">
        <ele>147.7</ele>
        <time>2015-01-18T08:56:35Z</time>
      </trkpt>
      <trkpt lat="44.60331" lon="0.8409">
        <ele>147.7</ele>
        <time>2015-01-18T08:56:50Z</time>
      </trkpt>
      <trkpt lat="44.60366" lon="0.84082">
        <ele>148.18</ele>
        <time>2015-01-18T08:57:04Z</time>
      </trkpt>
      <trkpt lat="44.60408" lon="0.84081">
        <ele>148.18</ele>
        <time>2015-01-18T08:57:19Z</time>
      </trkpt>
      <trkpt lat="44.60454" lon="0.8406">
        <ele>148.18</ele>
        <time>2015-01-18T08:57:34Z</time>
      </trkpt>
      <trkpt lat="44.60487" lon="0.84044">
        <ele>150.1</ele>
        <time>2015-01-18T08:57:46Z</time>
      </trkpt>
      <trkpt lat="44.60496" lon="0.84052">
        <ele>150.1</ele>
        <time>2015-01-18T08:57:52Z</time>
      </trkpt>
      <trkpt lat="44.60511" lon="0.84087">
        <ele>149.62</ele>
        <time>2015-01-18T08:58:04Z</time>
      </trkpt>
      <trkpt lat="44.60584" lon="0.84134">
        <ele>146.26</ele>
        <time>2015-01-18T08:58:18Z</time>
      </trkpt>
      <trkpt lat="44.606" lon="0.84147">
        <ele>146.74</ele>
        <time>2015-01-18T08:58:22Z</time>
      </trkpt>
      <trkpt lat="44.60589" lon="0.84186">
        <ele>145.3</ele>
        <time>2015-01-18T08:58:34Z</time>
      </trkpt>
      <trkpt lat="44.60583" lon="0.84204">
        <ele>143.85</ele>
        <time>2015-01-18T08:58:39Z</time>
      </trkpt>
      <trkpt lat="44.60594" lon="0.84217">
        <ele>144.34</ele>
        <time>2015-01-18T08:58:44Z</time>
      </trkpt>
      <trkpt lat="44.60615" lon="0.84256">
        <ele>147.22</ele>
        <time>2015-01-18T08:58:56Z</time>
      </trkpt>
      <trkpt lat="44.60632" lon="0.84296">
        <ele>151.06</ele>
        <time>2015-01-18T08:59:08Z</time>
      </trkpt>
      <trkpt lat="44.60639" lon="0.84336">
        <ele>152.99</ele>
        <time>2015-01-18T08:59:20Z</time>
      </trkpt>
      <trkpt lat="44.60646" lon="0.84372">
        <ele>155.87</ele>
        <time>2015-01-18T08:59:32Z</time>
      </trkpt>
      <trkpt lat="44.60666" lon="0.84402">
        <ele>159.72</ele>
        <time>2015-01-18T08:59:44Z</time>
      </trkpt>
      <trkpt lat="44.60697" lon="0.84444">
        <ele>161.64</ele>
        <time>2015-01-18T09:00:02Z</time>
      </trkpt>
      <trkpt lat="44.60724" lon="0.84474">
        <ele>160.68</ele>
        <time>2015-01-18T09:00:15Z</time>
      </trkpt>
      <trkpt lat="44.60759" lon="0.84518">
        <ele>160.2</ele>
        <time>2015-01-18T09:00:30Z</time>
      </trkpt>
      <trkpt lat="44.6078" lon="0.84543">
        <ele>159.72</ele>
        <time>2015-01-18T09:00:37Z</time>
      </trkpt>
      <trkpt lat="44.60791" lon="0.84562">
        <ele>158.75</ele>
        <time>2015-01-18T09:00:41Z</time>
      </trkpt>
      <trkpt lat="44.608" lon="0.84585">
        <ele>158.27</ele>
        <time>2015-01-18T09:00:45Z</time>
      </trkpt>
      <trkpt lat="44.60813" lon="0.8461">
        <ele>157.31</ele>
        <time>2015-01-18T09:00:50Z</time>
      </trkpt>
      <trkpt lat="44.60842" lon="0.84642">
        <ele>158.75</ele>
        <time>2015-01-18T09:01:01Z</time>
      </trkpt>
      <trkpt lat="44.60868" lon="0.84655">
        <ele>160.68</ele>
        <time>2015-01-18T09:01:09Z</time>
      </trkpt>
      <trkpt lat="44.6088" lon="0.84677">
        <ele>162.6</ele>
        <time>2015-01-18T09:01:17Z</time>
      </trkpt>
      <trkpt lat="44.60891" lon="0.84716">
        <ele>164.52</ele>
        <time>2015-01-18T09:01:30Z</time>
      </trkpt>
      <trkpt lat="44.60917" lon="0.84701">
        <ele>161.64</ele>
        <time>2015-01-18T09:01:39Z</time>
      </trkpt>
      <trkpt lat="44.60928" lon="0.84691">
        <ele>160.68</ele>
        <time>2015-01-18T09:01:42Z</time>
      </trkpt>
      <trkpt lat="44.60939" lon="0.84678">
        <ele>160.68</ele>
        <time>2015-01-18T09:01:45Z</time>
      </trkpt>
      <trkpt lat="44.60954" lon="0.84677">
        <ele>160.2</ele>
        <time>2015-01-18T09:01:49Z</time>
      </trkpt>
      <trkpt lat="44.60961" lon="0.84683">
        <ele>160.2</ele>
        <time>2015-01-18T09:01:51Z</time>
      </trkpt>
      <trkpt lat="44.60981" lon="0.84691">
        <ele>160.2</ele>
        <time>2015-01-18T09:01:56Z</time>
      </trkpt>
      <trkpt lat="44.6099" lon="0.84694">
        <ele>159.72</ele>
        <time>2015-01-18T09:01:58Z</time>
      </trkpt>
      <trkpt lat="44.61009" lon="0.84686">
        <ele>157.79</ele>
        <time>2015-01-18T09:02:02Z</time>
      </trkpt>
      <trkpt lat="44.61018" lon="0.84673">
        <ele>156.35</ele>
        <time>2015-01-18T09:02:04Z</time>
      </trkpt>
      <trkpt lat="44.61029" lon="0.84633">
        <ele>153.47</ele>
        <time>2015-01-18T09:02:09Z</time>
      </trkpt>
      <trkpt lat="44.6105" lon="0.8452">
        <ele>147.22</ele>
        <time>2015-01-18T09:02:19Z</time>
      </trkpt>
      <trkpt lat="44.61065" lon="0.8447">
        <ele>144.82</ele>
        <time>2015-01-18T09:02:26Z</time>
      </trkpt>
      <trkpt lat="44.61072" lon="0.84469">
        <ele>144.34</ele>
        <time>2015-01-18T09:02:30Z</time>
      </trkpt>
      <trkpt lat="44.61087" lon="0.84497">
        <ele>142.89</ele>
        <time>2015-01-18T09:02:41Z</time>
      </trkpt>
      <trkpt lat="44.61107" lon="0.84542">
        <ele>145.78</ele>
        <time>2015-01-18T09:02:55Z</time>
      </trkpt>
      <trkpt lat="44.61111" lon="0.84581">
        <ele>148.66</ele>
        <time>2015-01-18T09:03:07Z</time>
      </trkpt>
      <trkpt lat="44.6111" lon="0.846">
        <ele>149.14</ele>
        <time>2015-01-18T09:03:12Z</time>
      </trkpt>
      <trkpt lat="44.61123" lon="0.84618">
        <ele>149.14</ele>
        <time>2015-01-18T09:03:20Z</time>
      </trkpt>
      <trkpt lat="44.61133" lon="0.84622">
        <ele>149.62</ele>
        <time>2015-01-18T09:03:24Z</time>
      </trkpt>
      <trkpt lat="44.61162" lon="0.84649">
        <ele>152.99</ele>
        <time>2015-01-18T09:03:38Z</time>
      </trkpt>
      <trkpt lat="44.61187" lon="0.84678">
        <ele>152.99</ele>
        <time>2015-01-18T09:03:50Z</time>
      </trkpt>
      <trkpt lat="44.61218" lon="0.84688">
        <ele>149.14</ele>
        <time>2015-01-18T09:04:00Z</time>
      </trkpt>
      <trkpt lat="44.61256" lon="0.84684">
        <ele>149.62</ele>
        <time>2015-01-18T09:04:10Z</time>
      </trkpt>
      <trkpt lat="44.61259" lon="0.84685">
        <ele>149.14</ele>
        <time>2015-01-18T09:04:11Z</time>
      </trkpt>
      <trkpt lat="44.61267" lon="0.84688">
        <ele>148.18</ele>
        <time>2015-01-18T09:04:14Z</time>
      </trkpt>
      <trkpt lat="44.61283" lon="0.8469">
        <ele>148.66</ele>
        <time>2015-01-18T09:04:21Z</time>
      </trkpt>
      <trkpt lat="44.61307" lon="0.84721">
        <ele>153.47</ele>
        <time>2015-01-18T09:04:34Z</time>
      </trkpt>
      <trkpt lat="44.61328" lon="0.84745">
        <ele>159.24</ele>
        <time>2015-01-18T09:04:45Z</time>
      </trkpt>
      <trkpt lat="44.61337" lon="0.84781">
        <ele>161.16</ele>
        <time>2015-01-18T09:04:56Z</time>
      </trkpt>
      <trkpt lat="44.61345" lon="0.84792">
        <ele>162.6</ele>
        <time>2015-01-18T09:05:01Z</time>
      </trkpt>
      <trkpt lat="44.61368" lon="0.84806">
        <ele>164.52</ele>
        <time>2015-01-18T09:05:12Z</time>
      </trkpt>
      <trkpt lat="44.61367" lon="0.84821">
        <ele>165.48</ele>
        <time>2015-01-18T09:05:24Z</time>
      </trkpt>
      <trkpt lat="44.61367" lon="0.84824">
        <ele>163.56</ele>
        <time>2015-01-18T09:05:42Z</time>
      </trkpt>
      <trkpt lat="44.61363" lon="0.84831">
        <ele>163.56</ele>
        <time>2015-01-18T09:06:08Z</time>
      </trkpt>
      <trkpt lat="44.61364" lon="0.84831">
        <ele>165</ele>
        <time>2015-01-18T09:06:17Z</time>
      </trkpt>
      <trkpt lat="44.61368" lon="0.84847">
        <ele>165.96</ele>
        <time>2015-01-18T09:06:25Z</time>
      </trkpt>
      <trkpt lat="44.61386" lon="0.84909">
        <ele>164.04</ele>
        <time>2015-01-18T09:06:41Z</time>
      </trkpt>
      <trkpt lat="44.61406" lon="0.84959">
        <ele>164.04</ele>
        <time>2015-01-18T09:06:53Z</time>
      </trkpt>
      <trkpt lat="44.61419" lon="0.85009">
        <ele>162.6</ele>
        <time>2015-01-18T09:07:05Z</time>
      </trkpt>
      <trkpt lat="44.61396" lon="0.85068">
        <ele>163.08</ele>
        <time>2015-01-18T09:07:18Z</time>
      </trkpt>
      <trkpt lat="44.61394" lon="0.85114">
        <ele>164.04</ele>
        <time>2015-01-18T09:07:27Z</time>
      </trkpt>
      <trkpt lat="44.61394" lon="0.85122">
        <ele>164.52</ele>
        <time>2015-01-18T09:07:29Z</time>
      </trkpt>
      <trkpt lat="44.61403" lon="0.85134">
        <ele>165.48</ele>
        <time>2015-01-18T09:07:34Z</time>
      </trkpt>
      <trkpt lat="44.61433" lon="0.85159">
        <ele>169.81</ele>
        <time>2015-01-18T09:07:48Z</time>
      </trkpt>
      <trkpt lat="44.61454" lon="0.85186">
        <ele>174.62</ele>
        <time>2015-01-18T09:08:00Z</time>
      </trkpt>
      <trkpt lat="44.61453" lon="0.85192">
        <ele>175.1</ele>
        <time>2015-01-18T09:08:02Z</time>
      </trkpt>
      <trkpt lat="44.61469" lon="0.8522">
        <ele>176.54</ele>
        <time>2015-01-18T09:08:12Z</time>
      </trkpt>
      <trkpt lat="44.61472" lon="0.85222">
        <ele>177.02</ele>
        <time>2015-01-18T09:08:13Z</time>
      </trkpt>
      <trkpt lat="44.61483" lon="0.85217">
        <ele>178.94</ele>
        <time>2015-01-18T09:08:18Z</time>
      </trkpt>
      <trkpt lat="44.61492" lon="0.85203">
        <ele>179.9</ele>
        <time>2015-01-18T09:08:23Z</time>
      </trkpt>
      <trkpt lat="44.61513" lon="0.85207">
        <ele>178.94</ele>
        <time>2015-01-18T09:08:31Z</time>
      </trkpt>
      <trkpt lat="44.61498" lon="0.85235">
        <ele>179.9</ele>
        <time>2015-01-18T09:08:42Z</time>
      </trkpt>
      <trkpt lat="44.61479" lon="0.85286">
        <ele>179.9</ele>
        <time>2015-01-18T09:08:56Z</time>
      </trkpt>
      <trkpt lat="44.61477" lon="0.85297">
        <ele>179.42</ele>
        <time>2015-01-18T09:08:58Z</time>
      </trkpt>
      <trkpt lat="44.61457" lon="0.85388">
        <ele>175.1</ele>
        <time>2015-01-18T09:09:09Z</time>
      </trkpt>
      <trkpt lat="44.61439" lon="0.85481">
        <ele>168.37</ele>
        <time>2015-01-18T09:09:19Z</time>
      </trkpt>
      <trkpt lat="44.6143" lon="0.85526">
        <ele>165.48</ele>
        <time>2015-01-18T09:09:22Z</time>
      </trkpt>
      <trkpt lat="44.61428" lon="0.85561">
        <ele>165.48</ele>
        <time>2015-01-18T09:09:25Z</time>
      </trkpt>
      <trkpt lat="44.6143" lon="0.85594">
        <ele>167.89</ele>
        <time>2015-01-18T09:09:35Z</time>
      </trkpt>
      <trkpt lat="44.61431" lon="0.85596">
        <ele>167.89</ele>
        <time>2015-01-18T09:09:37Z</time>
      </trkpt>
      <trkpt lat="44.61438" lon="0.85596">
        <ele>167.41</ele>
        <time>2015-01-18T09:09:41Z</time>
      </trkpt>
      <trkpt lat="44.61462" lon="0.8558">
        <ele>164.04</ele>
        <time>2015-01-18T09:09:52Z</time>
      </trkpt>
      <trkpt lat="44.61466" lon="0.85579">
        <ele>163.56</ele>
        <time>2015-01-18T09:09:53Z</time>
      </trkpt>
      <trkpt lat="44.61482" lon="0.85577">
        <ele>161.64</ele>
        <time>2015-01-18T09:09:56Z</time>
      </trkpt>
      <trkpt lat="44.61505" lon="0.85566">
        <ele>158.27</ele>
        <time>2015-01-18T09:10:00Z</time>
      </trkpt>
      <trkpt lat="44.61522" lon="0.85565">
        <ele>155.39</ele>
        <time>2015-01-18T09:10:04Z</time>
      </trkpt>
      <trkpt lat="44.6153" lon="0.85569">
        <ele>153.47</ele>
        <time>2015-01-18T09:10:06Z</time>
      </trkpt>
      <trkpt lat="44.61547" lon="0.8557">
        <ele>151.54</ele>
        <time>2015-01-18T09:10:10Z</time>
      </trkpt>
      <trkpt lat="44.61555" lon="0.85568">
        <ele>150.1</ele>
        <time>2015-01-18T09:10:12Z</time>
      </trkpt>
      <trkpt lat="44.6157" lon="0.85551">
        <ele>148.18</ele>
        <time>2015-01-18T09:10:18Z</time>
      </trkpt>
      <trkpt lat="44.61609" lon="0.85525">
        <ele>146.74</ele>
        <time>2015-01-18T09:10:31Z</time>
      </trkpt>
      <trkpt lat="44.61638" lon="0.85497">
        <ele>147.7</ele>
        <time>2015-01-18T09:10:42Z</time>
      </trkpt>
      <trkpt lat="44.6167" lon="0.85488">
        <ele>146.74</ele>
        <time>2015-01-18T09:10:51Z</time>
      </trkpt>
      <trkpt lat="44.61696" lon="0.85459">
        <ele>150.1</ele>
        <time>2015-01-18T09:11:03Z</time>
      </trkpt>
      <trkpt lat="44.61692" lon="0.85423">
        <ele>157.79</ele>
        <time>2015-01-18T09:11:15Z</time>
      </trkpt>
      <trkpt lat="44.61681" lon="0.85395">
        <ele>165</ele>
        <time>2015-01-18T09:11:27Z</time>
      </trkpt>
      <trkpt lat="44.61678" lon="0.85385">
        <ele>165.96</ele>
        <time>2015-01-18T09:11:31Z</time>
      </trkpt>
      <trkpt lat="44.61673" lon="0.85373">
        <ele>167.89</ele>
        <time>2015-01-18T09:11:36Z</time>
      </trkpt>
      <trkpt lat="44.61659" lon="0.85334">
        <ele>172.69</ele>
        <time>2015-01-18T09:11:51Z</time>
      </trkpt>
      <trkpt lat="44.61658" lon="0.85332">
        <ele>173.17</ele>
        <time>2015-01-18T09:11:52Z</time>
      </trkpt>
      <trkpt lat="44.61664" lon="0.85318">
        <ele>173.66</ele>
        <time>2015-01-18T09:11:58Z</time>
      </trkpt>
      <trkpt lat="44.61685" lon="0.85289">
        <ele>172.21</ele>
        <time>2015-01-18T09:12:12Z</time>
      </trkpt>
      <trkpt lat="44.6171" lon="0.85261">
        <ele>170.29</ele>
        <time>2015-01-18T09:12:26Z</time>
      </trkpt>
      <trkpt lat="44.61742" lon="0.85221">
        <ele>169.33</ele>
        <time>2015-01-18T09:12:41Z</time>
      </trkpt>
      <trkpt lat="44.61776" lon="0.85176">
        <ele>169.33</ele>
        <time>2015-01-18T09:12:57Z</time>
      </trkpt>
      <trkpt lat="44.61807" lon="0.8513">
        <ele>168.85</ele>
        <time>2015-01-18T09:13:10Z</time>
      </trkpt>
      <trkpt lat="44.6181" lon="0.85126">
        <ele>168.37</ele>
        <time>2015-01-18T09:13:11Z</time>
      </trkpt>
      <trkpt lat="44.61834" lon="0.85103">
        <ele>166.45</ele>
        <time>2015-01-18T09:13:18Z</time>
      </trkpt>
      <trkpt lat="44.61889" lon="0.85046">
        <ele>164.52</ele>
        <time>2015-01-18T09:13:34Z</time>
      </trkpt>
      <trkpt lat="44.61895" lon="0.85038">
        <ele>164.04</ele>
        <time>2015-01-18T09:13:36Z</time>
      </trkpt>
      <trkpt lat="44.61937" lon="0.8499">
        <ele>163.08</ele>
        <time>2015-01-18T09:13:50Z</time>
      </trkpt>
      <trkpt lat="44.61984" lon="0.84949">
        <ele>159.72</ele>
        <time>2015-01-18T09:14:03Z</time>
      </trkpt>
      <trkpt lat="44.6201" lon="0.84925">
        <ele>157.79</ele>
        <time>2015-01-18T09:14:08Z</time>
      </trkpt>
      <trkpt lat="44.62044" lon="0.84858">
        <ele>149.14</ele>
        <time>2015-01-18T09:14:17Z</time>
      </trkpt>
      <trkpt lat="44.6205" lon="0.84846">
        <ele>147.22</ele>
        <time>2015-01-18T09:14:19Z</time>
      </trkpt>
      <trkpt lat="44.62048" lon="0.84827">
        <ele>143.37</ele>
        <time>2015-01-18T09:14:24Z</time>
      </trkpt>
      <trkpt lat="44.6204" lon="0.84804">
        <ele>140.49</ele>
        <time>2015-01-18T09:14:28Z</time>
      </trkpt>
      <trkpt lat="44.62036" lon="0.84792">
        <ele>138.57</ele>
        <time>2015-01-18T09:14:30Z</time>
      </trkpt>
      <trkpt lat="44.62037" lon="0.84772">
        <ele>135.68</ele>
        <time>2015-01-18T09:14:33Z</time>
      </trkpt>
      <trkpt lat="44.62043" lon="0.8475">
        <ele>133.28</ele>
        <time>2015-01-18T09:14:37Z</time>
      </trkpt>
      <trkpt lat="44.62057" lon="0.84675">
        <ele>127.99</ele>
        <time>2015-01-18T09:14:49Z</time>
      </trkpt>
      <trkpt lat="44.62056" lon="0.8467">
        <ele>127.51</ele>
        <time>2015-01-18T09:14:50Z</time>
      </trkpt>
      <trkpt lat="44.62047" lon="0.84608">
        <ele>125.59</ele>
        <time>2015-01-18T09:15:03Z</time>
      </trkpt>
      <trkpt lat="44.62047" lon="0.84601">
        <ele>127.51</ele>
        <time>2015-01-18T09:15:14Z</time>
      </trkpt>
      <trkpt lat="44.62046" lon="0.8459">
        <ele>127.03</ele>
        <time>2015-01-18T09:15:20Z</time>
      </trkpt>
      <trkpt lat="44.62046" lon="0.84586">
        <ele>127.03</ele>
        <time>2015-01-18T09:15:22Z</time>
      </trkpt>
      <trkpt lat="44.62045" lon="0.84576">
        <ele>126.55</ele>
        <time>2015-01-18T09:15:26Z</time>
      </trkpt>
      <trkpt lat="44.62041" lon="0.84524">
        <ele>126.07</ele>
        <time>2015-01-18T09:15:37Z</time>
      </trkpt>
      <trkpt lat="44.62033" lon="0.84493">
        <ele>127.99</ele>
        <time>2015-01-18T09:15:43Z</time>
      </trkpt>
      <trkpt lat="44.62026" lon="0.8448">
        <ele>129.92</ele>
        <time>2015-01-18T09:15:55Z</time>
      </trkpt>
      <trkpt lat="44.62026" lon="0.8448">
        <ele>129.92</ele>
        <time>2015-01-18T09:15:56Z</time>
      </trkpt>
      <trkpt lat="44.62024" lon="0.84468">
        <ele>131.36</ele>
        <time>2015-01-18T09:16:07Z</time>
      </trkpt>
      <trkpt lat="44.62023" lon="0.84462">
        <ele>133.76</ele>
        <time>2015-01-18T09:16:17Z</time>
      </trkpt>
      <trkpt lat="44.62021" lon="0.84453">
        <ele>134.72</ele>
        <time>2015-01-18T09:16:31Z</time>
      </trkpt>
      <trkpt lat="44.62021" lon="0.84451">
        <ele>134.72</ele>
        <time>2015-01-18T09:16:32Z</time>
      </trkpt>
      <trkpt lat="44.62013" lon="0.84416">
        <ele>134.72</ele>
        <time>2015-01-18T09:16:45Z</time>
      </trkpt>
      <trkpt lat="44.62005" lon="0.84373">
        <ele>131.36</ele>
        <time>2015-01-18T09:16:57Z</time>
      </trkpt>
      <trkpt lat="44.62004" lon="0.84346">
        <ele>130.4</ele>
        <time>2015-01-18T09:17:05Z</time>
      </trkpt>
      <trkpt lat="44.62034" lon="0.84306">
        <ele>128.47</ele>
        <time>2015-01-18T09:17:16Z</time>
      </trkpt>
      <trkpt lat="44.62061" lon="0.84304">
        <ele>127.99</ele>
        <time>2015-01-18T09:17:24Z</time>
      </trkpt>
      <trkpt lat="44.62108" lon="0.84312">
        <ele>127.99</ele>
        <time>2015-01-18T09:17:36Z</time>
      </trkpt>
      <trkpt lat="44.62152" lon="0.84332">
        <ele>130.88</ele>
        <time>2015-01-18T09:17:49Z</time>
      </trkpt>
      <trkpt lat="44.62199" lon="0.84357">
        <ele>135.2</ele>
        <time>2015-01-18T09:18:05Z</time>
      </trkpt>
      <trkpt lat="44.62244" lon="0.8437">
        <ele>139.53</ele>
        <time>2015-01-18T09:18:20Z</time>
      </trkpt>
      <trkpt lat="44.62288" lon="0.84387">
        <ele>142.89</ele>
        <time>2015-01-18T09:18:35Z</time>
      </trkpt>
      <trkpt lat="44.62318" lon="0.84393">
        <ele>142.89</ele>
        <time>2015-01-18T09:18:47Z</time>
      </trkpt>
      <trkpt lat="44.6233" lon="0.84367">
        <ele>141.93</ele>
        <time>2015-01-18T09:18:53Z</time>
      </trkpt>
      <trkpt lat="44.62377" lon="0.84325">
        <ele>143.37</ele>
        <time>2015-01-18T09:19:06Z</time>
      </trkpt>
      <trkpt lat="44.62441" lon="0.8426">
        <ele>147.22</ele>
        <time>2015-01-18T09:19:25Z</time>
      </trkpt>
      <trkpt lat="44.62503" lon="0.84184">
        <ele>150.1</ele>
        <time>2015-01-18T09:19:44Z</time>
      </trkpt>
      <trkpt lat="44.62569" lon="0.84113">
        <ele>152.51</ele>
        <time>2015-01-18T09:20:04Z</time>
      </trkpt>
      <trkpt lat="44.6263" lon="0.84058">
        <ele>153.47</ele>
        <time>2015-01-18T09:20:22Z</time>
      </trkpt>
      <trkpt lat="44.6268" lon="0.84019">
        <ele>152.99</ele>
        <time>2015-01-18T09:20:39Z</time>
      </trkpt>
      <trkpt lat="44.62695" lon="0.84011">
        <ele>152.03</ele>
        <time>2015-01-18T09:20:43Z</time>
      </trkpt>
      <trkpt lat="44.62701" lon="0.84022">
        <ele>151.54</ele>
        <time>2015-01-18T09:20:47Z</time>
      </trkpt>
      <trkpt lat="44.62695" lon="0.84092">
        <ele>152.99</ele>
        <time>2015-01-18T09:21:02Z</time>
      </trkpt>
      <trkpt lat="44.62685" lon="0.84154">
        <ele>152.03</ele>
        <time>2015-01-18T09:21:16Z</time>
      </trkpt>
      <trkpt lat="44.6266" lon="0.84224">
        <ele>152.03</ele>
        <time>2015-01-18T09:21:31Z</time>
      </trkpt>
      <trkpt lat="44.62655" lon="0.84298">
        <ele>152.99</ele>
        <time>2015-01-18T09:21:46Z</time>
      </trkpt>
      <trkpt lat="44.62656" lon="0.84303">
        <ele>152.51</ele>
        <time>2015-01-18T09:21:47Z</time>
      </trkpt>
      <trkpt lat="44.62662" lon="0.84317">
        <ele>152.99</ele>
        <time>2015-01-18T09:21:50Z</time>
      </trkpt>
      <trkpt lat="44.62664" lon="0.84376">
        <ele>152.03</ele>
        <time>2015-01-18T09:22:01Z</time>
      </trkpt>
      <trkpt lat="44.62655" lon="0.84434">
        <ele>152.99</ele>
        <time>2015-01-18T09:22:12Z</time>
      </trkpt>
      <trkpt lat="44.62647" lon="0.84506">
        <ele>156.35</ele>
        <time>2015-01-18T09:22:27Z</time>
      </trkpt>
      <trkpt lat="44.62639" lon="0.84548">
        <ele>158.27</ele>
        <time>2015-01-18T09:22:39Z</time>
      </trkpt>
      <trkpt lat="44.62627" lon="0.84595">
        <ele>158.75</ele>
        <time>2015-01-18T09:22:52Z</time>
      </trkpt>
      <trkpt lat="44.62627" lon="0.84614">
        <ele>158.75</ele>
        <time>2015-01-18T09:22:58Z</time>
      </trkpt>
      <trkpt lat="44.62627" lon="0.84628">
        <ele>159.24</ele>
        <time>2015-01-18T09:23:02Z</time>
      </trkpt>
      <trkpt lat="44.62617" lon="0.84678">
        <ele>160.68</ele>
        <time>2015-01-18T09:23:18Z</time>
      </trkpt>
      <trkpt lat="44.62609" lon="0.84742">
        <ele>161.16</ele>
        <time>2015-01-18T09:23:33Z</time>
      </trkpt>
      <trkpt lat="44.62607" lon="0.84767">
        <ele>161.16</ele>
        <time>2015-01-18T09:23:39Z</time>
      </trkpt>
      <trkpt lat="44.62608" lon="0.84777">
        <ele>160.68</ele>
        <time>2015-01-18T09:23:43Z</time>
      </trkpt>
      <trkpt lat="44.62626" lon="0.84836">
        <ele>162.6</ele>
        <time>2015-01-18T09:23:57Z</time>
      </trkpt>
      <trkpt lat="44.62626" lon="0.84872">
        <ele>161.16</ele>
        <time>2015-01-18T09:24:05Z</time>
      </trkpt>
      <trkpt lat="44.62637" lon="0.849">
        <ele>157.31</ele>
        <time>2015-01-18T09:24:13Z</time>
      </trkpt>
      <trkpt lat="44.62644" lon="0.84948">
        <ele>159.24</ele>
        <time>2015-01-18T09:24:24Z</time>
      </trkpt>
      <trkpt lat="44.62632" lon="0.84959">
        <ele>158.75</ele>
        <time>2015-01-18T09:24:29Z</time>
      </trkpt>
      <trkpt lat="44.62595" lon="0.84991">
        <ele>167.41</ele>
        <time>2015-01-18T09:24:42Z</time>
      </trkpt>
      <trkpt lat="44.62591" lon="0.84992">
        <ele>167.89</ele>
        <time>2015-01-18T09:24:43Z</time>
      </trkpt>
      <trkpt lat="44.62553" lon="0.85016">
        <ele>171.25</ele>
        <time>2015-01-18T09:24:55Z</time>
      </trkpt>
      <trkpt lat="44.62525" lon="0.8504">
        <ele>173.17</ele>
        <time>2015-01-18T09:25:06Z</time>
      </trkpt>
      <trkpt lat="44.62515" lon="0.85037">
        <ele>172.21</ele>
        <time>2015-01-18T09:25:10Z</time>
      </trkpt>
      <trkpt lat="44.6251" lon="0.85036">
        <ele>171.25</ele>
        <time>2015-01-18T09:25:22Z</time>
      </trkpt>
      <trkpt lat="44.62509" lon="0.85035">
        <ele>169.33</ele>
        <time>2015-01-18T09:25:46Z</time>
      </trkpt>
      <trkpt lat="44.62509" lon="0.85037">
        <ele>168.85</ele>
        <time>2015-01-18T09:26:11Z</time>
      </trkpt>
      <trkpt lat="44.62509" lon="0.85038">
        <ele>169.81</ele>
        <time>2015-01-18T09:26:41Z</time>
      </trkpt>
      <trkpt lat="44.6251" lon="0.85037">
        <ele>170.29</ele>
        <time>2015-01-18T09:27:08Z</time>
      </trkpt>
      <trkpt lat="44.62508" lon="0.85038">
        <ele>169.81</ele>
        <time>2015-01-18T09:27:28Z</time>
      </trkpt>
      <trkpt lat="44.62505" lon="0.85034">
        <ele>169.81</ele>
        <time>2015-01-18T09:27:55Z</time>
      </trkpt>
      <trkpt lat="44.62509" lon="0.8504">
        <ele>170.29</ele>
        <time>2015-01-18T09:28:27Z</time>
      </trkpt>
      <trkpt lat="44.62509" lon="0.85046">
        <ele>172.69</ele>
        <time>2015-01-18T09:29:02Z</time>
      </trkpt>
      <trkpt lat="44.62508" lon="0.85042">
        <ele>175.58</ele>
        <time>2015-01-18T09:29:37Z</time>
      </trkpt>
      <trkpt lat="44.62506" lon="0.85041">
        <ele>175.1</ele>
        <time>2015-01-18T09:30:18Z</time>
      </trkpt>
      <trkpt lat="44.62509" lon="0.85041">
        <ele>168.85</ele>
        <time>2015-01-18T09:30:55Z</time>
      </trkpt>
      <trkpt lat="44.62509" lon="0.85037">
        <ele>169.33</ele>
        <time>2015-01-18T09:31:09Z</time>
      </trkpt>
      <trkpt lat="44.62504" lon="0.85038">
        <ele>169.33</ele>
        <time>2015-01-18T09:31:24Z</time>
      </trkpt>
      <trkpt lat="44.6246" lon="0.85027">
        <ele>167.89</ele>
        <time>2015-01-18T09:31:40Z</time>
      </trkpt>
      <trkpt lat="44.62429" lon="0.85018">
        <ele>167.41</ele>
        <time>2015-01-18T09:31:51Z</time>
      </trkpt>
      <trkpt lat="44.62429" lon="0.85018">
        <ele>167.41</ele>
        <time>2015-01-18T09:32:03Z</time>
      </trkpt>
      <trkpt lat="44.62429" lon="0.85018">
        <ele>167.41</ele>
        <time>2015-01-18T09:32:23Z</time>
      </trkpt>
      <trkpt lat="44.6243" lon="0.85019">
        <ele>166.93</ele>
        <time>2015-01-18T09:32:45Z</time>
      </trkpt>
      <trkpt lat="44.62431" lon="0.85018">
        <ele>167.89</ele>
        <time>2015-01-18T09:32:59Z</time>
      </trkpt>
      <trkpt lat="44.62429" lon="0.85026">
        <ele>166.45</ele>
        <time>2015-01-18T09:33:03Z</time>
      </trkpt>
      <trkpt lat="44.62432" lon="0.85056">
        <ele>164.04</ele>
        <time>2015-01-18T09:33:09Z</time>
      </trkpt>
      <trkpt lat="44.62407" lon="0.85131">
        <ele>153.95</ele>
        <time>2015-01-18T09:33:21Z</time>
      </trkpt>
      <trkpt lat="44.62396" lon="0.85165">
        <ele>153.95</ele>
        <time>2015-01-18T09:33:31Z</time>
      </trkpt>
      <trkpt lat="44.62385" lon="0.85198">
        <ele>160.2</ele>
        <time>2015-01-18T09:33:44Z</time>
      </trkpt>
      <trkpt lat="44.62372" lon="0.85229">
        <ele>162.12</ele>
        <time>2015-01-18T09:33:56Z</time>
      </trkpt>
      <trkpt lat="44.62331" lon="0.85241">
        <ele>160.2</ele>
        <time>2015-01-18T09:34:07Z</time>
      </trkpt>
      <trkpt lat="44.62318" lon="0.85238">
        <ele>160.68</ele>
        <time>2015-01-18T09:34:13Z</time>
      </trkpt>
      <trkpt lat="44.62312" lon="0.85239">
        <ele>158.75</ele>
        <time>2015-01-18T09:34:26Z</time>
      </trkpt>
      <trkpt lat="44.62292" lon="0.85235">
        <ele>157.79</ele>
        <time>2015-01-18T09:34:39Z</time>
      </trkpt>
      <trkpt lat="44.62272" lon="0.85219">
        <ele>155.39</ele>
        <time>2015-01-18T09:34:49Z</time>
      </trkpt>
      <trkpt lat="44.62266" lon="0.85212">
        <ele>154.43</ele>
        <time>2015-01-18T09:34:52Z</time>
      </trkpt>
      <trkpt lat="44.62259" lon="0.85208">
        <ele>150.58</ele>
        <time>2015-01-18T09:35:07Z</time>
      </trkpt>
      <trkpt lat="44.62255" lon="0.85202">
        <ele>151.54</ele>
        <time>2015-01-18T09:35:26Z</time>
      </trkpt>
      <trkpt lat="44.62247" lon="0.85192">
        <ele>151.06</ele>
        <time>2015-01-18T09:35:38Z</time>
      </trkpt>
      <trkpt lat="44.62246" lon="0.85191">
        <ele>150.58</ele>
        <time>2015-01-18T09:35:53Z</time>
      </trkpt>
      <trkpt lat="44.62246" lon="0.85191">
        <ele>152.51</ele>
        <time>2015-01-18T09:36:08Z</time>
      </trkpt>
      <trkpt lat="44.62245" lon="0.85192">
        <ele>152.99</ele>
        <time>2015-01-18T09:36:16Z</time>
      </trkpt>
      <trkpt lat="44.62239" lon="0.85209">
        <ele>150.58</ele>
        <time>2015-01-18T09:36:29Z</time>
      </trkpt>
      <trkpt lat="44.62238" lon="0.85212">
        <ele>149.62</ele>
        <time>2015-01-18T09:36:31Z</time>
      </trkpt>
      <trkpt lat="44.62222" lon="0.85217">
        <ele>144.34</ele>
        <time>2015-01-18T09:36:44Z</time>
      </trkpt>
      <trkpt lat="44.62221" lon="0.85217">
        <ele>144.82</ele>
        <time>2015-01-18T09:36:57Z</time>
      </trkpt>
      <trkpt lat="44.62219" lon="0.85217">
        <ele>144.34</ele>
        <time>2015-01-18T09:37:15Z</time>
      </trkpt>
      <trkpt lat="44.62221" lon="0.85217">
        <ele>144.34</ele>
        <time>2015-01-18T09:37:30Z</time>
      </trkpt>
      <trkpt lat="44.62217" lon="0.85217">
        <ele>143.85</ele>
        <time>2015-01-18T09:37:50Z</time>
      </trkpt>
      <trkpt lat="44.62217" lon="0.85217">
        <ele>143.37</ele>
        <time>2015-01-18T09:38:19Z</time>
      </trkpt>
      <trkpt lat="44.62219" lon="0.85214">
        <ele>143.37</ele>
        <time>2015-01-18T09:38:39Z</time>
      </trkpt>
      <trkpt lat="44.62216" lon="0.85214">
        <ele>147.22</ele>
        <time>2015-01-18T09:38:55Z</time>
      </trkpt>
      <trkpt lat="44.6221" lon="0.85208">
        <ele>146.26</ele>
        <time>2015-01-18T09:39:01Z</time>
      </trkpt>
      <trkpt lat="44.62198" lon="0.85198">
        <ele>144.34</ele>
        <time>2015-01-18T09:39:13Z</time>
      </trkpt>
      <trkpt lat="44.62197" lon="0.85195">
        <ele>142.89</ele>
        <time>2015-01-18T09:39:29Z</time>
      </trkpt>
      <trkpt lat="44.62173" lon="0.85178">
        <ele>141.45</ele>
        <time>2015-01-18T09:39:42Z</time>
      </trkpt>
      <trkpt lat="44.62166" lon="0.85138">
        <ele>139.05</ele>
        <time>2015-01-18T09:39:53Z</time>
      </trkpt>
      <trkpt lat="44.62161" lon="0.85111">
        <ele>135.2</ele>
        <time>2015-01-18T09:40:02Z</time>
      </trkpt>
      <trkpt lat="44.62156" lon="0.85101">
        <ele>134.72</ele>
        <time>2015-01-18T09:40:06Z</time>
      </trkpt>
      <trkpt lat="44.62151" lon="0.85083">
        <ele>133.28</ele>
        <time>2015-01-18T09:40:13Z</time>
      </trkpt>
      <trkpt lat="44.6215" lon="0.85074">
        <ele>130.4</ele>
        <time>2015-01-18T09:40:19Z</time>
      </trkpt>
      <trkpt lat="44.62147" lon="0.85064">
        <ele>127.03</ele>
        <time>2015-01-18T09:40:26Z</time>
      </trkpt>
      <trkpt lat="44.62141" lon="0.85058">
        <ele>126.07</ele>
        <time>2015-01-18T09:40:32Z</time>
      </trkpt>
      <trkpt lat="44.62144" lon="0.85052">
        <ele>125.59</ele>
        <time>2015-01-18T09:40:36Z</time>
      </trkpt>
      <trkpt lat="44.62138" lon="0.85032">
        <ele>125.59</ele>
        <time>2015-01-18T09:40:50Z</time>
      </trkpt>
      <trkpt lat="44.6213" lon="0.85027">
        <ele>126.07</ele>
        <time>2015-01-18T09:41:00Z</time>
      </trkpt>
      <trkpt lat="44.62121" lon="0.85042">
        <ele>128.47</ele>
        <time>2015-01-18T09:41:12Z</time>
      </trkpt>
      <trkpt lat="44.62119" lon="0.85045">
        <ele>128.47</ele>
        <time>2015-01-18T09:41:14Z</time>
      </trkpt>
      <trkpt lat="44.62116" lon="0.85064">
        <ele>132.32</ele>
        <time>2015-01-18T09:41:24Z</time>
      </trkpt>
      <trkpt lat="44.621" lon="0.85082">
        <ele>138.57</ele>
        <time>2015-01-18T09:41:37Z</time>
      </trkpt>
      <trkpt lat="44.62093" lon="0.85089">
        <ele>139.05</ele>
        <time>2015-01-18T09:41:41Z</time>
      </trkpt>
      <trkpt lat="44.62083" lon="0.85099">
        <ele>140.97</ele>
        <time>2015-01-18T09:41:48Z</time>
      </trkpt>
      <trkpt lat="44.62074" lon="0.85106">
        <ele>142.41</ele>
        <time>2015-01-18T09:41:54Z</time>
      </trkpt>
      <trkpt lat="44.62069" lon="0.85125">
        <ele>143.85</ele>
        <time>2015-01-18T09:42:02Z</time>
      </trkpt>
      <trkpt lat="44.62066" lon="0.85141">
        <ele>145.3</ele>
        <time>2015-01-18T09:42:09Z</time>
      </trkpt>
      <trkpt lat="44.62066" lon="0.85149">
        <ele>146.26</ele>
        <time>2015-01-18T09:42:13Z</time>
      </trkpt>
      <trkpt lat="44.62063" lon="0.85168">
        <ele>148.66</ele>
        <time>2015-01-18T09:42:22Z</time>
      </trkpt>
      <trkpt lat="44.6206" lon="0.85178">
        <ele>150.1</ele>
        <time>2015-01-18T09:42:27Z</time>
      </trkpt>
      <trkpt lat="44.62056" lon="0.85199">
        <ele>151.54</ele>
        <time>2015-01-18T09:42:37Z</time>
      </trkpt>
      <trkpt lat="44.62067" lon="0.85221">
        <ele>148.66</ele>
        <time>2015-01-18T09:42:50Z</time>
      </trkpt>
      <trkpt lat="44.62066" lon="0.85222">
        <ele>147.7</ele>
        <time>2015-01-18T09:43:08Z</time>
      </trkpt>
      <trkpt lat="44.62067" lon="0.85222">
        <ele>148.66</ele>
        <time>2015-01-18T09:43:33Z</time>
      </trkpt>
      <trkpt lat="44.62077" lon="0.85235">
        <ele>148.18</ele>
        <time>2015-01-18T09:43:49Z</time>
      </trkpt>
      <trkpt lat="44.62081" lon="0.85241">
        <ele>147.7</ele>
        <time>2015-01-18T09:43:50Z</time>
      </trkpt>
      <trkpt lat="44.62108" lon="0.85282">
        <ele>142.41</ele>
        <time>2015-01-18T09:43:57Z</time>
      </trkpt>
      <trkpt lat="44.62114" lon="0.85292">
        <ele>141.45</ele>
        <time>2015-01-18T09:43:59Z</time>
      </trkpt>
      <trkpt lat="44.62127" lon="0.85337">
        <ele>140.01</ele>
        <time>2015-01-18T09:44:10Z</time>
      </trkpt>
      <trkpt lat="44.62138" lon="0.85353">
        <ele>142.41</ele>
        <time>2015-01-18T09:44:15Z</time>
      </trkpt>
      <trkpt lat="44.62161" lon="0.85388">
        <ele>151.06</ele>
        <time>2015-01-18T09:44:28Z</time>
      </trkpt>
      <trkpt lat="44.6218" lon="0.85411">
        <ele>158.27</ele>
        <time>2015-01-18T09:44:39Z</time>
      </trkpt>
      <trkpt lat="44.62199" lon="0.85427">
        <ele>160.2</ele>
        <time>2015-01-18T09:44:51Z</time>
      </trkpt>
      <trkpt lat="44.62221" lon="0.85445">
        <ele>160.2</ele>
        <time>2015-01-18T09:45:04Z</time>
      </trkpt>
      <trkpt lat="44.62247" lon="0.85465">
        <ele>162.6</ele>
        <time>2015-01-18T09:45:16Z</time>
      </trkpt>
      <trkpt lat="44.62259" lon="0.85473">
        <ele>163.08</ele>
        <time>2015-01-18T09:45:18Z</time>
      </trkpt>
      <trkpt lat="44.62279" lon="0.85482">
        <ele>162.6</ele>
        <time>2015-01-18T09:45:21Z</time>
      </trkpt>
      <trkpt lat="44.62291" lon="0.85487">
        <ele>161.64</ele>
        <time>2015-01-18T09:45:24Z</time>
      </trkpt>
      <trkpt lat="44.62293" lon="0.85497">
        <ele>161.16</ele>
        <time>2015-01-18T09:45:28Z</time>
      </trkpt>
      <trkpt lat="44.62293" lon="0.85538">
        <ele>159.72</ele>
        <time>2015-01-18T09:45:40Z</time>
      </trkpt>
      <trkpt lat="44.62299" lon="0.8557">
        <ele>160.68</ele>
        <time>2015-01-18T09:45:51Z</time>
      </trkpt>
      <trkpt lat="44.62302" lon="0.85619">
        <ele>162.6</ele>
        <time>2015-01-18T09:46:05Z</time>
      </trkpt>
      <trkpt lat="44.62311" lon="0.85664">
        <ele>158.27</ele>
        <time>2015-01-18T09:46:17Z</time>
      </trkpt>
      <trkpt lat="44.62334" lon="0.85718">
        <ele>155.87</ele>
        <time>2015-01-18T09:46:27Z</time>
      </trkpt>
      <trkpt lat="44.62362" lon="0.85735">
        <ele>153.47</ele>
        <time>2015-01-18T09:46:34Z</time>
      </trkpt>
      <trkpt lat="44.62365" lon="0.85724">
        <ele>152.51</ele>
        <time>2015-01-18T09:46:36Z</time>
      </trkpt>
      <trkpt lat="44.62367" lon="0.85712">
        <ele>152.03</ele>
        <time>2015-01-18T09:46:38Z</time>
      </trkpt>
      <trkpt lat="44.62387" lon="0.85674">
        <ele>152.51</ele>
        <time>2015-01-18T09:46:46Z</time>
      </trkpt>
      <trkpt lat="44.62404" lon="0.85647">
        <ele>153.47</ele>
        <time>2015-01-18T09:46:51Z</time>
      </trkpt>
      <trkpt lat="44.62429" lon="0.85607">
        <ele>155.39</ele>
        <time>2015-01-18T09:47:00Z</time>
      </trkpt>
      <trkpt lat="44.62437" lon="0.85596">
        <ele>154.43</ele>
        <time>2015-01-18T09:47:04Z</time>
      </trkpt>
      <trkpt lat="44.62458" lon="0.85571">
        <ele>154.43</ele>
        <time>2015-01-18T09:47:17Z</time>
      </trkpt>
      <trkpt lat="44.6246" lon="0.85568">
        <ele>154.43</ele>
        <time>2015-01-18T09:47:18Z</time>
      </trkpt>
      <trkpt lat="44.62463" lon="0.85558">
        <ele>154.43</ele>
        <time>2015-01-18T09:47:21Z</time>
      </trkpt>
      <trkpt lat="44.62466" lon="0.8555">
        <ele>153.95</ele>
        <time>2015-01-18T09:47:24Z</time>
      </trkpt>
      <trkpt lat="44.6247" lon="0.85544">
        <ele>153.47</ele>
        <time>2015-01-18T09:47:27Z</time>
      </trkpt>
      <trkpt lat="44.62473" lon="0.85532">
        <ele>152.99</ele>
        <time>2015-01-18T09:47:32Z</time>
      </trkpt>
      <trkpt lat="44.6247" lon="0.85516">
        <ele>150.1</ele>
        <time>2015-01-18T09:47:38Z</time>
      </trkpt>
      <trkpt lat="44.62472" lon="0.85511">
        <ele>149.62</ele>
        <time>2015-01-18T09:47:41Z</time>
      </trkpt>
      <trkpt lat="44.62477" lon="0.85508">
        <ele>149.62</ele>
        <time>2015-01-18T09:47:45Z</time>
      </trkpt>
      <trkpt lat="44.62482" lon="0.855">
        <ele>150.58</ele>
        <time>2015-01-18T09:47:50Z</time>
      </trkpt>
      <trkpt lat="44.62503" lon="0.85485">
        <ele>155.39</ele>
        <time>2015-01-18T09:48:04Z</time>
      </trkpt>
      <trkpt lat="44.62508" lon="0.85483">
        <ele>155.87</ele>
        <time>2015-01-18T09:48:08Z</time>
      </trkpt>
      <trkpt lat="44.62518" lon="0.85473">
        <ele>157.79</ele>
        <time>2015-01-18T09:48:14Z</time>
      </trkpt>
      <trkpt lat="44.62526" lon="0.85459">
        <ele>157.31</ele>
        <time>2015-01-18T09:48:26Z</time>
      </trkpt>
      <trkpt lat="44.62534" lon="0.85445">
        <ele>161.16</ele>
        <time>2015-01-18T09:48:40Z</time>
      </trkpt>
      <trkpt lat="44.6254" lon="0.85437">
        <ele>163.08</ele>
        <time>2015-01-18T09:48:53Z</time>
      </trkpt>
      <trkpt lat="44.62549" lon="0.85419">
        <ele>161.64</ele>
        <time>2015-01-18T09:49:05Z</time>
      </trkpt>
      <trkpt lat="44.62552" lon="0.8541">
        <ele>161.16</ele>
        <time>2015-01-18T09:49:08Z</time>
      </trkpt>
      <trkpt lat="44.62538" lon="0.85394">
        <ele>160.2</ele>
        <time>2015-01-18T09:49:20Z</time>
      </trkpt>
      <trkpt lat="44.62529" lon="0.85384">
        <ele>161.64</ele>
        <time>2015-01-18T09:49:28Z</time>
      </trkpt>
      <trkpt lat="44.62513" lon="0.85356">
        <ele>161.16</ele>
        <time>2015-01-18T09:49:44Z</time>
      </trkpt>
      <trkpt lat="44.62512" lon="0.85312">
        <ele>165</ele>
        <time>2015-01-18T09:50:02Z</time>
      </trkpt>
      <trkpt lat="44.62525" lon="0.85279">
        <ele>166.93</ele>
        <time>2015-01-18T09:50:17Z</time>
      </trkpt>
      <trkpt lat="44.62531" lon="0.85273">
        <ele>167.89</ele>
        <time>2015-01-18T09:50:29Z</time>
      </trkpt>
      <trkpt lat="44.62533" lon="0.85271">
        <ele>168.37</ele>
        <time>2015-01-18T09:50:53Z</time>
      </trkpt>
      <trkpt lat="44.62532" lon="0.85268">
        <ele>169.33</ele>
        <time>2015-01-18T09:51:01Z</time>
      </trkpt>
      <trkpt lat="44.62553" lon="0.8526">
        <ele>170.29</ele>
        <time>2015-01-18T09:51:11Z</time>
      </trkpt>
      <trkpt lat="44.62576" lon="0.85252">
        <ele>170.77</ele>
        <time>2015-01-18T09:51:19Z</time>
      </trkpt>
      <trkpt lat="44.62584" lon="0.8524">
        <ele>170.29</ele>
        <time>2015-01-18T09:51:24Z</time>
      </trkpt>
      <trkpt lat="44.6261" lon="0.85197">
        <ele>170.29</ele>
        <time>2015-01-18T09:51:35Z</time>
      </trkpt>
      <trkpt lat="44.62619" lon="0.85171">
        <ele>170.77</ele>
        <time>2015-01-18T09:51:40Z</time>
      </trkpt>
      <trkpt lat="44.62626" lon="0.85144">
        <ele>171.73</ele>
        <time>2015-01-18T09:51:45Z</time>
      </trkpt>
      <trkpt lat="44.62632" lon="0.8512">
        <ele>171.73</ele>
        <time>2015-01-18T09:51:49Z</time>
      </trkpt>
      <trkpt lat="44.62636" lon="0.85103">
        <ele>172.21</ele>
        <time>2015-01-18T09:51:52Z</time>
      </trkpt>
      <trkpt lat="44.62646" lon="0.85097">
        <ele>173.17</ele>
        <time>2015-01-18T09:51:56Z</time>
      </trkpt>
      <trkpt lat="44.62686" lon="0.85106">
        <ele>180.38</ele>
        <time>2015-01-18T09:52:11Z</time>
      </trkpt>
      <trkpt lat="44.62728" lon="0.85114">
        <ele>184.71</ele>
        <time>2015-01-18T09:52:26Z</time>
      </trkpt>
      <trkpt lat="44.62767" lon="0.8513">
        <ele>188.56</ele>
        <time>2015-01-18T09:52:40Z</time>
      </trkpt>
      <trkpt lat="44.62819" lon="0.85156">
        <ele>190.96</ele>
        <time>2015-01-18T09:52:57Z</time>
      </trkpt>
      <trkpt lat="44.62861" lon="0.85171">
        <ele>192.88</ele>
        <time>2015-01-18T09:53:10Z</time>
      </trkpt>
      <trkpt lat="44.62914" lon="0.85193">
        <ele>195.28</ele>
        <time>2015-01-18T09:53:26Z</time>
      </trkpt>
      <trkpt lat="44.62969" lon="0.85215">
        <ele>195.28</ele>
        <time>2015-01-18T09:53:43Z</time>
      </trkpt>
      <trkpt lat="44.6302" lon="0.85236">
        <ele>195.77</ele>
        <time>2015-01-18T09:53:56Z</time>
      </trkpt>
      <trkpt lat="44.63064" lon="0.85254">
        <ele>197.69</ele>
        <time>2015-01-18T09:54:08Z</time>
      </trkpt>
      <trkpt lat="44.63094" lon="0.85276">
        <ele>195.28</ele>
        <time>2015-01-18T09:54:16Z</time>
      </trkpt>
      <trkpt lat="44.63143" lon="0.85334">
        <ele>192.88</ele>
        <time>2015-01-18T09:54:30Z</time>
      </trkpt>
      <trkpt lat="44.63162" lon="0.85354">
        <ele>193.84</ele>
        <time>2015-01-18T09:54:36Z</time>
      </trkpt>
      <trkpt lat="44.63207" lon="0.85398">
        <ele>196.73</ele>
        <time>2015-01-18T09:54:51Z</time>
      </trkpt>
      <trkpt lat="44.63244" lon="0.85417">
        <ele>204.9</ele>
        <time>2015-01-18T09:55:04Z</time>
      </trkpt>
      <trkpt lat="44.6328" lon="0.8544">
        <ele>209.7</ele>
        <time>2015-01-18T09:55:18Z</time>
      </trkpt>
      <trkpt lat="44.63323" lon="0.85462">
        <ele>208.26</ele>
        <time>2015-01-18T09:55:33Z</time>
      </trkpt>
      <trkpt lat="44.63363" lon="0.85487">
        <ele>205.38</ele>
        <time>2015-01-18T09:55:44Z</time>
      </trkpt>
      <trkpt lat="44.63429" lon="0.85518">
        <ele>202.49</ele>
        <time>2015-01-18T09:55:57Z</time>
      </trkpt>
      <trkpt lat="44.63462" lon="0.85523">
        <ele>198.65</ele>
        <time>2015-01-18T09:56:06Z</time>
      </trkpt>
      <trkpt lat="44.63499" lon="0.8547">
        <ele>199.61</ele>
        <time>2015-01-18T09:56:21Z</time>
      </trkpt>
      <trkpt lat="44.63515" lon="0.85431">
        <ele>199.61</ele>
        <time>2015-01-18T09:56:31Z</time>
      </trkpt>
      <trkpt lat="44.63536" lon="0.85429">
        <ele>199.13</ele>
        <time>2015-01-18T09:56:40Z</time>
      </trkpt>
      <trkpt lat="44.63553" lon="0.85427">
        <ele>200.57</ele>
        <time>2015-01-18T09:56:45Z</time>
      </trkpt>
      <trkpt lat="44.63571" lon="0.85434">
        <ele>199.13</ele>
        <time>2015-01-18T09:56:49Z</time>
      </trkpt>
      <trkpt lat="44.6358" lon="0.85442">
        <ele>198.17</ele>
        <time>2015-01-18T09:56:51Z</time>
      </trkpt>
      <trkpt lat="44.63589" lon="0.85456">
        <ele>196.73</ele>
        <time>2015-01-18T09:56:54Z</time>
      </trkpt>
      <trkpt lat="44.636" lon="0.85476">
        <ele>194.8</ele>
        <time>2015-01-18T09:56:58Z</time>
      </trkpt>
      <trkpt lat="44.63607" lon="0.85504">
        <ele>192.88</ele>
        <time>2015-01-18T09:57:03Z</time>
      </trkpt>
      <trkpt lat="44.63617" lon="0.85531">
        <ele>189.04</ele>
        <time>2015-01-18T09:57:07Z</time>
      </trkpt>
      <trkpt lat="44.6365" lon="0.85537">
        <ele>183.27</ele>
        <time>2015-01-18T09:57:14Z</time>
      </trkpt>
      <trkpt lat="44.63659" lon="0.8553">
        <ele>182.31</ele>
        <time>2015-01-18T09:57:16Z</time>
      </trkpt>
      <trkpt lat="44.6367" lon="0.85524">
        <ele>181.83</ele>
        <time>2015-01-18T09:57:18Z</time>
      </trkpt>
      <trkpt lat="44.6369" lon="0.85508">
        <ele>180.38</ele>
        <time>2015-01-18T09:57:22Z</time>
      </trkpt>
      <trkpt lat="44.63719" lon="0.8548">
        <ele>177.98</ele>
        <time>2015-01-18T09:57:28Z</time>
      </trkpt>
      <trkpt lat="44.63743" lon="0.85469">
        <ele>177.5</ele>
        <time>2015-01-18T09:57:32Z</time>
      </trkpt>
      <trkpt lat="44.63764" lon="0.85458">
        <ele>177.5</ele>
        <time>2015-01-18T09:57:36Z</time>
      </trkpt>
      <trkpt lat="44.63777" lon="0.85456">
        <ele>177.02</ele>
        <time>2015-01-18T09:57:38Z</time>
      </trkpt>
      <trkpt lat="44.63814" lon="0.85443">
        <ele>176.06</ele>
        <time>2015-01-18T09:57:44Z</time>
      </trkpt>
      <trkpt lat="44.63853" lon="0.85424">
        <ele>176.06</ele>
        <time>2015-01-18T09:57:50Z</time>
      </trkpt>
      <trkpt lat="44.63897" lon="0.85405">
        <ele>176.06</ele>
        <time>2015-01-18T09:57:57Z</time>
      </trkpt>
      <trkpt lat="44.63926" lon="0.85427">
        <ele>175.1</ele>
        <time>2015-01-18T09:58:04Z</time>
      </trkpt>
      <trkpt lat="44.63918" lon="0.85463">
        <ele>173.17</ele>
        <time>2015-01-18T09:58:09Z</time>
      </trkpt>
      <trkpt lat="44.63902" lon="0.85484">
        <ele>171.73</ele>
        <time>2015-01-18T09:58:13Z</time>
      </trkpt>
      <trkpt lat="44.63877" lon="0.85526">
        <ele>169.81</ele>
        <time>2015-01-18T09:58:23Z</time>
      </trkpt>
      <trkpt lat="44.63873" lon="0.85533">
        <ele>169.33</ele>
        <time>2015-01-18T09:58:25Z</time>
      </trkpt>
      <trkpt lat="44.63879" lon="0.85549">
        <ele>169.33</ele>
        <time>2015-01-18T09:58:34Z</time>
      </trkpt>
      <trkpt lat="44.63882" lon="0.85549">
        <ele>171.73</ele>
        <time>2015-01-18T09:59:00Z</time>
      </trkpt>
      <trkpt lat="44.63885" lon="0.85549">
        <ele>170.77</ele>
        <time>2015-01-18T09:59:10Z</time>
      </trkpt>
      <trkpt lat="44.63899" lon="0.85526">
        <ele>171.25</ele>
        <time>2015-01-18T09:59:20Z</time>
      </trkpt>
      <trkpt lat="44.63924" lon="0.85495">
        <ele>171.73</ele>
        <time>2015-01-18T09:59:30Z</time>
      </trkpt>
      <trkpt lat="44.63953" lon="0.85479">
        <ele>172.69</ele>
        <time>2015-01-18T09:59:40Z</time>
      </trkpt>
      <trkpt lat="44.63959" lon="0.85475">
        <ele>173.66</ele>
        <time>2015-01-18T09:59:45Z</time>
      </trkpt>
      <trkpt lat="44.63966" lon="0.85459">
        <ele>173.17</ele>
        <time>2015-01-18T09:59:51Z</time>
      </trkpt>
      <trkpt lat="44.63976" lon="0.85448">
        <ele>173.17</ele>
        <time>2015-01-18T09:59:55Z</time>
      </trkpt>
      <trkpt lat="44.63994" lon="0.85445">
        <ele>172.69</ele>
        <time>2015-01-18T10:00:01Z</time>
      </trkpt>
      <trkpt lat="44.63999" lon="0.85439">
        <ele>171.73</ele>
        <time>2015-01-18T10:00:04Z</time>
      </trkpt>
      <trkpt lat="44.64024" lon="0.85408">
        <ele>168.85</ele>
        <time>2015-01-18T10:00:15Z</time>
      </trkpt>
      <trkpt lat="44.64037" lon="0.8539">
        <ele>168.37</ele>
        <time>2015-01-18T10:00:20Z</time>
      </trkpt>
      <trkpt lat="44.64055" lon="0.85365">
        <ele>168.85</ele>
        <time>2015-01-18T10:00:27Z</time>
      </trkpt>
      <trkpt lat="44.64064" lon="0.85346">
        <ele>168.37</ele>
        <time>2015-01-18T10:00:31Z</time>
      </trkpt>
      <trkpt lat="44.64089" lon="0.85302">
        <ele>167.41</ele>
        <time>2015-01-18T10:00:41Z</time>
      </trkpt>
      <trkpt lat="44.64092" lon="0.85298">
        <ele>167.41</ele>
        <time>2015-01-18T10:00:42Z</time>
      </trkpt>
      <trkpt lat="44.64114" lon="0.85295">
        <ele>169.81</ele>
        <time>2015-01-18T10:00:50Z</time>
      </trkpt>
      <trkpt lat="44.64133" lon="0.85301">
        <ele>172.21</ele>
        <time>2015-01-18T10:01:00Z</time>
      </trkpt>
      <trkpt lat="44.6414" lon="0.85306">
        <ele>173.66</ele>
        <time>2015-01-18T10:01:05Z</time>
      </trkpt>
      <trkpt lat="44.64154" lon="0.85324">
        <ele>177.98</ele>
        <time>2015-01-18T10:01:16Z</time>
      </trkpt>
      <trkpt lat="44.64166" lon="0.85346">
        <ele>179.9</ele>
        <time>2015-01-18T10:01:28Z</time>
      </trkpt>
      <trkpt lat="44.64182" lon="0.8537">
        <ele>181.83</ele>
        <time>2015-01-18T10:01:40Z</time>
      </trkpt>
      <trkpt lat="44.64189" lon="0.85385">
        <ele>180.38</ele>
        <time>2015-01-18T10:01:47Z</time>
      </trkpt>
      <trkpt lat="44.64195" lon="0.85409">
        <ele>185.19</ele>
        <time>2015-01-18T10:02:02Z</time>
      </trkpt>
      <trkpt lat="44.64195" lon="0.85413">
        <ele>184.71</ele>
        <time>2015-01-18T10:02:24Z</time>
      </trkpt>
      <trkpt lat="44.64191" lon="0.85413">
        <ele>179.9</ele>
        <time>2015-01-18T10:02:46Z</time>
      </trkpt>
      <trkpt lat="44.64191" lon="0.85416">
        <ele>178.94</ele>
        <time>2015-01-18T10:03:15Z</time>
      </trkpt>
      <trkpt lat="44.64192" lon="0.85414">
        <ele>178.94</ele>
        <time>2015-01-18T10:03:41Z</time>
      </trkpt>
      <trkpt lat="44.64195" lon="0.85414">
        <ele>178.46</ele>
        <time>2015-01-18T10:04:06Z</time>
      </trkpt>
      <trkpt lat="44.64194" lon="0.85415">
        <ele>180.38</ele>
        <time>2015-01-18T10:04:27Z</time>
      </trkpt>
      <trkpt lat="44.6419" lon="0.85413">
        <ele>177.5</ele>
        <time>2015-01-18T10:04:56Z</time>
      </trkpt>
      <trkpt lat="44.64191" lon="0.85416">
        <ele>177.02</ele>
        <time>2015-01-18T10:05:12Z</time>
      </trkpt>
      <trkpt lat="44.64179" lon="0.85436">
        <ele>175.1</ele>
        <time>2015-01-18T10:05:21Z</time>
      </trkpt>
      <trkpt lat="44.64148" lon="0.8549">
        <ele>172.21</ele>
        <time>2015-01-18T10:05:35Z</time>
      </trkpt>
      <trkpt lat="44.64144" lon="0.85493">
        <ele>171.73</ele>
        <time>2015-01-18T10:05:36Z</time>
      </trkpt>
      <trkpt lat="44.64124" lon="0.85514">
        <ele>170.77</ele>
        <time>2015-01-18T10:05:47Z</time>
      </trkpt>
      <trkpt lat="44.64117" lon="0.85526">
        <ele>170.29</ele>
        <time>2015-01-18T10:05:58Z</time>
      </trkpt>
      <trkpt lat="44.64116" lon="0.85524">
        <ele>170.29</ele>
        <time>2015-01-18T10:06:07Z</time>
      </trkpt>
      <trkpt lat="44.64113" lon="0.85502">
        <ele>169.81</ele>
        <time>2015-01-18T10:06:16Z</time>
      </trkpt>
      <trkpt lat="44.64094" lon="0.85478">
        <ele>168.85</ele>
        <time>2015-01-18T10:06:21Z</time>
      </trkpt>
      <trkpt lat="44.64068" lon="0.85435">
        <ele>164.04</ele>
        <time>2015-01-18T10:06:31Z</time>
      </trkpt>
      <trkpt lat="44.64066" lon="0.85432">
        <ele>163.56</ele>
        <time>2015-01-18T10:06:32Z</time>
      </trkpt>
      <trkpt lat="44.64059" lon="0.85435">
        <ele>165</ele>
        <time>2015-01-18T10:06:35Z</time>
      </trkpt>
      <trkpt lat="44.64033" lon="0.85418">
        <ele>162.12</ele>
        <time>2015-01-18T10:06:45Z</time>
      </trkpt>
      <trkpt lat="44.6403" lon="0.85417">
        <ele>162.12</ele>
        <time>2015-01-18T10:06:46Z</time>
      </trkpt>
      <trkpt lat="44.64021" lon="0.85415">
        <ele>161.16</ele>
        <time>2015-01-18T10:06:50Z</time>
      </trkpt>
      <trkpt lat="44.64011" lon="0.85436">
        <ele>162.6</ele>
        <time>2015-01-18T10:06:56Z</time>
      </trkpt>
      <trkpt lat="44.64003" lon="0.85443">
        <ele>163.56</ele>
        <time>2015-01-18T10:07:00Z</time>
      </trkpt>
      <trkpt lat="44.63979" lon="0.8545">
        <ele>165.96</ele>
        <time>2015-01-18T10:07:09Z</time>
      </trkpt>
      <trkpt lat="44.63977" lon="0.85453">
        <ele>166.45</ele>
        <time>2015-01-18T10:07:10Z</time>
      </trkpt>
      <trkpt lat="44.63972" lon="0.85458">
        <ele>166.45</ele>
        <time>2015-01-18T10:07:12Z</time>
      </trkpt>
      <trkpt lat="44.6396" lon="0.85475">
        <ele>168.37</ele>
        <time>2015-01-18T10:07:21Z</time>
      </trkpt>
      <trkpt lat="44.63948" lon="0.85479">
        <ele>170.29</ele>
        <time>2015-01-18T10:07:26Z</time>
      </trkpt>
      <trkpt lat="44.63916" lon="0.85503">
        <ele>173.66</ele>
        <time>2015-01-18T10:07:39Z</time>
      </trkpt>
      <trkpt lat="44.63897" lon="0.85534">
        <ele>174.14</ele>
        <time>2015-01-18T10:07:51Z</time>
      </trkpt>
      <trkpt lat="44.63888" lon="0.85545">
        <ele>172.21</ele>
        <time>2015-01-18T10:07:55Z</time>
      </trkpt>
      <trkpt lat="44.63891" lon="0.85558">
        <ele>172.21</ele>
        <time>2015-01-18T10:08:01Z</time>
      </trkpt>
      <trkpt lat="44.63893" lon="0.85563">
        <ele>172.21</ele>
        <time>2015-01-18T10:08:03Z</time>
      </trkpt>
      <trkpt lat="44.63917" lon="0.85605">
        <ele>174.14</ele>
        <time>2015-01-18T10:08:22Z</time>
      </trkpt>
      <trkpt lat="44.63936" lon="0.85644">
        <ele>176.54</ele>
        <time>2015-01-18T10:08:37Z</time>
      </trkpt>
      <trkpt lat="44.63955" lon="0.85692">
        <ele>177.02</ele>
        <time>2015-01-18T10:08:53Z</time>
      </trkpt>
      <trkpt lat="44.63966" lon="0.85722">
        <ele>177.5</ele>
        <time>2015-01-18T10:09:04Z</time>
      </trkpt>
      <trkpt lat="44.63979" lon="0.85768">
        <ele>177.98</ele>
        <time>2015-01-18T10:09:18Z</time>
      </trkpt>
      <trkpt lat="44.63995" lon="0.85823">
        <ele>176.06</ele>
        <time>2015-01-18T10:09:30Z</time>
      </trkpt>
      <trkpt lat="44.6401" lon="0.85889">
        <ele>177.5</ele>
        <time>2015-01-18T10:09:45Z</time>
      </trkpt>
      <trkpt lat="44.64008" lon="0.85917">
        <ele>179.9</ele>
        <time>2015-01-18T10:09:53Z</time>
      </trkpt>
      <trkpt lat="44.6402" lon="0.85917">
        <ele>181.35</ele>
        <time>2015-01-18T10:10:05Z</time>
      </trkpt>
      <trkpt lat="44.64023" lon="0.85915">
        <ele>175.58</ele>
        <time>2015-01-18T10:10:35Z</time>
      </trkpt>
      <trkpt lat="44.64024" lon="0.85915">
        <ele>175.58</ele>
        <time>2015-01-18T10:10:57Z</time>
      </trkpt>
      <trkpt lat="44.64026" lon="0.85916">
        <ele>178.46</ele>
        <time>2015-01-18T10:11:20Z</time>
      </trkpt>
      <trkpt lat="44.64022" lon="0.85915">
        <ele>178.94</ele>
        <time>2015-01-18T10:11:34Z</time>
      </trkpt>
      <trkpt lat="44.64017" lon="0.85917">
        <ele>184.71</ele>
        <time>2015-01-18T10:12:14Z</time>
      </trkpt>
      <trkpt lat="44.64017" lon="0.85916">
        <ele>182.79</ele>
        <time>2015-01-18T10:12:40Z</time>
      </trkpt>
      <trkpt lat="44.64017" lon="0.85918">
        <ele>181.35</ele>
        <time>2015-01-18T10:13:10Z</time>
      </trkpt>
      <trkpt lat="44.6401" lon="0.8592">
        <ele>180.38</ele>
        <time>2015-01-18T10:13:56Z</time>
      </trkpt>
      <trkpt lat="44.6401" lon="0.85926">
        <ele>185.19</ele>
        <time>2015-01-18T10:14:37Z</time>
      </trkpt>
      <trkpt lat="44.64013" lon="0.85923">
        <ele>182.79</ele>
        <time>2015-01-18T10:15:02Z</time>
      </trkpt>
      <trkpt lat="44.64019" lon="0.85921">
        <ele>181.83</ele>
        <time>2015-01-18T10:15:30Z</time>
      </trkpt>
      <trkpt lat="44.64014" lon="0.85917">
        <ele>182.31</ele>
        <time>2015-01-18T10:16:15Z</time>
      </trkpt>
      <trkpt lat="44.64014" lon="0.85919">
        <ele>187.11</ele>
        <time>2015-01-18T10:16:59Z</time>
      </trkpt>
      <trkpt lat="44.64014" lon="0.85925">
        <ele>189.04</ele>
        <time>2015-01-18T10:17:38Z</time>
      </trkpt>
      <trkpt lat="44.64015" lon="0.85925">
        <ele>183.75</ele>
        <time>2015-01-18T10:18:11Z</time>
      </trkpt>
      <trkpt lat="44.6402" lon="0.85923">
        <ele>184.71</ele>
        <time>2015-01-18T10:18:29Z</time>
      </trkpt>
      <trkpt lat="44.64022" lon="0.85922">
        <ele>181.83</ele>
        <time>2015-01-18T10:18:43Z</time>
      </trkpt>
      <trkpt lat="44.64029" lon="0.85946">
        <ele>184.71</ele>
        <time>2015-01-18T10:18:55Z</time>
      </trkpt>
      <trkpt lat="44.64032" lon="0.85992">
        <ele>187.59</ele>
        <time>2015-01-18T10:19:08Z</time>
      </trkpt>
      <trkpt lat="44.64027" lon="0.86034">
        <ele>188.08</ele>
        <time>2015-01-18T10:19:18Z</time>
      </trkpt>
      <trkpt lat="44.64018" lon="0.86097">
        <ele>190.48</ele>
        <time>2015-01-18T10:19:31Z</time>
      </trkpt>
      <trkpt lat="44.64007" lon="0.8617">
        <ele>190.96</ele>
        <time>2015-01-18T10:19:46Z</time>
      </trkpt>
      <trkpt lat="44.63999" lon="0.86225">
        <ele>192.88</ele>
        <time>2015-01-18T10:19:58Z</time>
      </trkpt>
      <trkpt lat="44.63993" lon="0.86282">
        <ele>194.32</ele>
        <time>2015-01-18T10:20:10Z</time>
      </trkpt>
      <trkpt lat="44.63986" lon="0.86367">
        <ele>194.8</ele>
        <time>2015-01-18T10:20:28Z</time>
      </trkpt>
      <trkpt lat="44.63986" lon="0.8645">
        <ele>194.32</ele>
        <time>2015-01-18T10:20:42Z</time>
      </trkpt>
      <trkpt lat="44.63988" lon="0.86475">
        <ele>194.32</ele>
        <time>2015-01-18T10:20:46Z</time>
      </trkpt>
      <trkpt lat="44.63992" lon="0.8653">
        <ele>193.36</ele>
        <time>2015-01-18T10:20:54Z</time>
      </trkpt>
      <trkpt lat="44.63999" lon="0.86578">
        <ele>193.36</ele>
        <time>2015-01-18T10:21:02Z</time>
      </trkpt>
      <trkpt lat="44.64019" lon="0.86664">
        <ele>192.4</ele>
        <time>2015-01-18T10:21:19Z</time>
      </trkpt>
      <trkpt lat="44.64027" lon="0.86712">
        <ele>190.96</ele>
        <time>2015-01-18T10:21:31Z</time>
      </trkpt>
      <trkpt lat="44.64033" lon="0.86776">
        <ele>192.4</ele>
        <time>2015-01-18T10:21:46Z</time>
      </trkpt>
      <trkpt lat="44.64037" lon="0.86833">
        <ele>194.32</ele>
        <time>2015-01-18T10:21:58Z</time>
      </trkpt>
      <trkpt lat="44.64034" lon="0.86904">
        <ele>196.25</ele>
        <time>2015-01-18T10:22:12Z</time>
      </trkpt>
      <trkpt lat="44.64028" lon="0.86968">
        <ele>199.13</ele>
        <time>2015-01-18T10:22:25Z</time>
      </trkpt>
      <trkpt lat="44.64011" lon="0.87031">
        <ele>206.34</ele>
        <time>2015-01-18T10:22:38Z</time>
      </trkpt>
      <trkpt lat="44.63993" lon="0.87092">
        <ele>213.07</ele>
        <time>2015-01-18T10:22:50Z</time>
      </trkpt>
      <trkpt lat="44.63971" lon="0.87161">
        <ele>213.07</ele>
        <time>2015-01-18T10:23:03Z</time>
      </trkpt>
      <trkpt lat="44.6396" lon="0.8718">
        <ele>211.15</ele>
        <time>2015-01-18T10:23:07Z</time>
      </trkpt>
      <trkpt lat="44.63917" lon="0.87261">
        <ele>202.98</ele>
        <time>2015-01-18T10:23:23Z</time>
      </trkpt>
      <trkpt lat="44.63898" lon="0.87294">
        <ele>199.13</ele>
        <time>2015-01-18T10:23:29Z</time>
      </trkpt>
      <trkpt lat="44.63886" lon="0.87319">
        <ele>195.77</ele>
        <time>2015-01-18T10:23:34Z</time>
      </trkpt>
      <trkpt lat="44.63878" lon="0.87336">
        <ele>194.32</ele>
        <time>2015-01-18T10:23:37Z</time>
      </trkpt>
      <trkpt lat="44.63873" lon="0.87362">
        <ele>193.36</ele>
        <time>2015-01-18T10:23:41Z</time>
      </trkpt>
      <trkpt lat="44.6387" lon="0.87383">
        <ele>192.88</ele>
        <time>2015-01-18T10:23:44Z</time>
      </trkpt>
      <trkpt lat="44.63864" lon="0.87419">
        <ele>191.44</ele>
        <time>2015-01-18T10:23:49Z</time>
      </trkpt>
      <trkpt lat="44.63865" lon="0.87442">
        <ele>190</ele>
        <time>2015-01-18T10:23:52Z</time>
      </trkpt>
      <trkpt lat="44.6387" lon="0.87481">
        <ele>189.04</ele>
        <time>2015-01-18T10:23:57Z</time>
      </trkpt>
      <trkpt lat="44.63878" lon="0.87601">
        <ele>188.56</ele>
        <time>2015-01-18T10:24:12Z</time>
      </trkpt>
      <trkpt lat="44.63908" lon="0.87699">
        <ele>190</ele>
        <time>2015-01-18T10:24:25Z</time>
      </trkpt>
      <trkpt lat="44.63938" lon="0.87741">
        <ele>191.92</ele>
        <time>2015-01-18T10:24:33Z</time>
      </trkpt>
      <trkpt lat="44.63988" lon="0.87836">
        <ele>191.92</ele>
        <time>2015-01-18T10:24:49Z</time>
      </trkpt>
      <trkpt lat="44.6399" lon="0.87841">
        <ele>191.92</ele>
        <time>2015-01-18T10:24:50Z</time>
      </trkpt>
      <trkpt lat="44.64022" lon="0.87923">
        <ele>191.44</ele>
        <time>2015-01-18T10:25:06Z</time>
      </trkpt>
      <trkpt lat="44.64051" lon="0.88">
        <ele>192.88</ele>
        <time>2015-01-18T10:25:21Z</time>
      </trkpt>
      <trkpt lat="44.64064" lon="0.88069">
        <ele>191.44</ele>
        <time>2015-01-18T10:25:35Z</time>
      </trkpt>
      <trkpt lat="44.64067" lon="0.88107">
        <ele>190</ele>
        <time>2015-01-18T10:25:40Z</time>
      </trkpt>
      <trkpt lat="44.64061" lon="0.8815">
        <ele>188.56</ele>
        <time>2015-01-18T10:25:48Z</time>
      </trkpt>
      <trkpt lat="44.64055" lon="0.88149">
        <ele>188.56</ele>
        <time>2015-01-18T10:25:50Z</time>
      </trkpt>
      <trkpt lat="44.63999" lon="0.88126">
        <ele>192.88</ele>
        <time>2015-01-18T10:26:08Z</time>
      </trkpt>
      <trkpt lat="44.63966" lon="0.88114">
        <ele>198.17</ele>
        <time>2015-01-18T10:26:20Z</time>
      </trkpt>
      <trkpt lat="44.63914" lon="0.88097">
        <ele>200.57</ele>
        <time>2015-01-18T10:26:37Z</time>
      </trkpt>
      <trkpt lat="44.63862" lon="0.88078">
        <ele>203.94</ele>
        <time>2015-01-18T10:26:53Z</time>
      </trkpt>
      <trkpt lat="44.63795" lon="0.88052">
        <ele>208.26</ele>
        <time>2015-01-18T10:27:13Z</time>
      </trkpt>
      <trkpt lat="44.63738" lon="0.8802">
        <ele>212.11</ele>
        <time>2015-01-18T10:27:30Z</time>
      </trkpt>
      <trkpt lat="44.63672" lon="0.87983">
        <ele>214.51</ele>
        <time>2015-01-18T10:27:49Z</time>
      </trkpt>
      <trkpt lat="44.6363" lon="0.87959">
        <ele>217.4</ele>
        <time>2015-01-18T10:28:04Z</time>
      </trkpt>
      <trkpt lat="44.63586" lon="0.87922">
        <ele>212.11</ele>
        <time>2015-01-18T10:28:16Z</time>
      </trkpt>
      <trkpt lat="44.63514" lon="0.87842">
        <ele>206.82</ele>
        <time>2015-01-18T10:28:27Z</time>
      </trkpt>
      <trkpt lat="44.635" lon="0.87828">
        <ele>204.42</ele>
        <time>2015-01-18T10:28:34Z</time>
      </trkpt>
      <trkpt lat="44.635" lon="0.87827">
        <ele>202.01</ele>
        <time>2015-01-18T10:28:49Z</time>
      </trkpt>
      <trkpt lat="44.635" lon="0.87826">
        <ele>200.57</ele>
        <time>2015-01-18T10:29:23Z</time>
      </trkpt>
      <trkpt lat="44.63499" lon="0.87826">
        <ele>200.09</ele>
        <time>2015-01-18T10:29:26Z</time>
      </trkpt>
      <trkpt lat="44.63482" lon="0.87838">
        <ele>200.09</ele>
        <time>2015-01-18T10:29:34Z</time>
      </trkpt>
      <trkpt lat="44.63443" lon="0.87836">
        <ele>200.57</ele>
        <time>2015-01-18T10:29:44Z</time>
      </trkpt>
      <trkpt lat="44.63393" lon="0.87833">
        <ele>202.49</ele>
        <time>2015-01-18T10:29:57Z</time>
      </trkpt>
      <trkpt lat="44.63346" lon="0.87831">
        <ele>206.82</ele>
        <time>2015-01-18T10:30:11Z</time>
      </trkpt>
      <trkpt lat="44.63293" lon="0.87827">
        <ele>206.34</ele>
        <time>2015-01-18T10:30:25Z</time>
      </trkpt>
      <trkpt lat="44.63285" lon="0.87827">
        <ele>206.34</ele>
        <time>2015-01-18T10:30:27Z</time>
      </trkpt>
      <trkpt lat="44.63241" lon="0.87823">
        <ele>206.82</ele>
        <time>2015-01-18T10:30:39Z</time>
      </trkpt>
      <trkpt lat="44.63194" lon="0.87797">
        <ele>205.86</ele>
        <time>2015-01-18T10:30:52Z</time>
      </trkpt>
      <trkpt lat="44.63149" lon="0.87773">
        <ele>206.82</ele>
        <time>2015-01-18T10:31:04Z</time>
      </trkpt>
      <trkpt lat="44.63133" lon="0.87763">
        <ele>208.26</ele>
        <time>2015-01-18T10:31:10Z</time>
      </trkpt>
      <trkpt lat="44.631" lon="0.87745">
        <ele>212.11</ele>
        <time>2015-01-18T10:31:21Z</time>
      </trkpt>
      <trkpt lat="44.63074" lon="0.87731">
        <ele>214.03</ele>
        <time>2015-01-18T10:31:30Z</time>
      </trkpt>
      <trkpt lat="44.6302" lon="0.87702">
        <ele>216.91</ele>
        <time>2015-01-18T10:31:42Z</time>
      </trkpt>
      <trkpt lat="44.6297" lon="0.87666">
        <ele>212.11</ele>
        <time>2015-01-18T10:31:55Z</time>
      </trkpt>
      <trkpt lat="44.62921" lon="0.87616">
        <ele>202.98</ele>
        <time>2015-01-18T10:32:08Z</time>
      </trkpt>
      <trkpt lat="44.62861" lon="0.87559">
        <ele>198.17</ele>
        <time>2015-01-18T10:32:24Z</time>
      </trkpt>
      <trkpt lat="44.62832" lon="0.87533">
        <ele>196.73</ele>
        <time>2015-01-18T10:32:34Z</time>
      </trkpt>
      <trkpt lat="44.62813" lon="0.87515">
        <ele>196.25</ele>
        <time>2015-01-18T10:32:41Z</time>
      </trkpt>
      <trkpt lat="44.62761" lon="0.87468">
        <ele>192.4</ele>
        <time>2015-01-18T10:32:53Z</time>
      </trkpt>
      <trkpt lat="44.62686" lon="0.87385">
        <ele>186.63</ele>
        <time>2015-01-18T10:33:07Z</time>
      </trkpt>
      <trkpt lat="44.62585" lon="0.87259">
        <ele>181.35</ele>
        <time>2015-01-18T10:33:24Z</time>
      </trkpt>
      <trkpt lat="44.62527" lon="0.87196">
        <ele>179.9</ele>
        <time>2015-01-18T10:33:35Z</time>
      </trkpt>
      <trkpt lat="44.62492" lon="0.87186">
        <ele>179.9</ele>
        <time>2015-01-18T10:33:41Z</time>
      </trkpt>
      <trkpt lat="44.62466" lon="0.87179">
        <ele>179.9</ele>
        <time>2015-01-18T10:33:46Z</time>
      </trkpt>
      <trkpt lat="44.62454" lon="0.872">
        <ele>180.87</ele>
        <time>2015-01-18T10:33:49Z</time>
      </trkpt>
      <trkpt lat="44.62418" lon="0.87288">
        <ele>179.42</ele>
        <time>2015-01-18T10:33:59Z</time>
      </trkpt>
      <trkpt lat="44.62404" lon="0.87308">
        <ele>178.46</ele>
        <time>2015-01-18T10:34:02Z</time>
      </trkpt>
      <trkpt lat="44.62364" lon="0.87386">
        <ele>178.46</ele>
        <time>2015-01-18T10:34:12Z</time>
      </trkpt>
      <trkpt lat="44.6235" lon="0.87412">
        <ele>178.94</ele>
        <time>2015-01-18T10:34:16Z</time>
      </trkpt>
      <trkpt lat="44.62346" lon="0.87429">
        <ele>179.42</ele>
        <time>2015-01-18T10:34:18Z</time>
      </trkpt>
      <trkpt lat="44.62336" lon="0.87453">
        <ele>179.42</ele>
        <time>2015-01-18T10:34:21Z</time>
      </trkpt>
      <trkpt lat="44.6232" lon="0.87472">
        <ele>179.42</ele>
        <time>2015-01-18T10:34:26Z</time>
      </trkpt>
      <trkpt lat="44.62283" lon="0.87454">
        <ele>179.42</ele>
        <time>2015-01-18T10:34:37Z</time>
      </trkpt>
      <trkpt lat="44.62232" lon="0.87443">
        <ele>185.67</ele>
        <time>2015-01-18T10:34:49Z</time>
      </trkpt>
      <trkpt lat="44.62223" lon="0.87439">
        <ele>186.15</ele>
        <time>2015-01-18T10:34:51Z</time>
      </trkpt>
      <trkpt lat="44.62176" lon="0.87433">
        <ele>187.59</ele>
        <time>2015-01-18T10:35:01Z</time>
      </trkpt>
      <trkpt lat="44.62162" lon="0.87433">
        <ele>188.56</ele>
        <time>2015-01-18T10:35:04Z</time>
      </trkpt>
      <trkpt lat="44.62124" lon="0.87429">
        <ele>191.92</ele>
        <time>2015-01-18T10:35:14Z</time>
      </trkpt>
      <trkpt lat="44.62108" lon="0.87434">
        <ele>192.88</ele>
        <time>2015-01-18T10:35:18Z</time>
      </trkpt>
      <trkpt lat="44.62068" lon="0.87427">
        <ele>195.28</ele>
        <time>2015-01-18T10:35:28Z</time>
      </trkpt>
      <trkpt lat="44.62033" lon="0.8742">
        <ele>199.61</ele>
        <time>2015-01-18T10:35:39Z</time>
      </trkpt>
      <trkpt lat="44.61998" lon="0.87409">
        <ele>200.09</ele>
        <time>2015-01-18T10:35:50Z</time>
      </trkpt>
      <trkpt lat="44.61956" lon="0.87389">
        <ele>200.09</ele>
        <time>2015-01-18T10:36:02Z</time>
      </trkpt>
      <trkpt lat="44.61927" lon="0.87386">
        <ele>200.57</ele>
        <time>2015-01-18T10:36:07Z</time>
      </trkpt>
      <trkpt lat="44.61905" lon="0.87396">
        <ele>200.57</ele>
        <time>2015-01-18T10:36:11Z</time>
      </trkpt>
      <trkpt lat="44.61881" lon="0.87413">
        <ele>199.61</ele>
        <time>2015-01-18T10:36:16Z</time>
      </trkpt>
      <trkpt lat="44.6187" lon="0.87419">
        <ele>199.61</ele>
        <time>2015-01-18T10:36:18Z</time>
      </trkpt>
      <trkpt lat="44.61845" lon="0.87435">
        <ele>198.17</ele>
        <time>2015-01-18T10:36:23Z</time>
      </trkpt>
      <trkpt lat="44.6183" lon="0.87447">
        <ele>196.25</ele>
        <time>2015-01-18T10:36:26Z</time>
      </trkpt>
      <trkpt lat="44.61795" lon="0.87454">
        <ele>190.96</ele>
        <time>2015-01-18T10:36:33Z</time>
      </trkpt>
      <trkpt lat="44.61769" lon="0.87461">
        <ele>187.59</ele>
        <time>2015-01-18T10:36:39Z</time>
      </trkpt>
      <trkpt lat="44.61717" lon="0.87447">
        <ele>181.83</ele>
        <time>2015-01-18T10:36:47Z</time>
      </trkpt>
      <trkpt lat="44.61705" lon="0.87437">
        <ele>179.9</ele>
        <time>2015-01-18T10:36:49Z</time>
      </trkpt>
      <trkpt lat="44.61671" lon="0.87414">
        <ele>173.17</ele>
        <time>2015-01-18T10:36:55Z</time>
      </trkpt>
      <trkpt lat="44.61632" lon="0.8739">
        <ele>172.21</ele>
        <time>2015-01-18T10:37:06Z</time>
      </trkpt>
      <trkpt lat="44.61605" lon="0.87369">
        <ele>176.06</ele>
        <time>2015-01-18T10:37:18Z</time>
      </trkpt>
      <trkpt lat="44.616" lon="0.87366">
        <ele>173.66</ele>
        <time>2015-01-18T10:37:28Z</time>
      </trkpt>
      <trkpt lat="44.616" lon="0.87366">
        <ele>171.73</ele>
        <time>2015-01-18T10:37:36Z</time>
      </trkpt>
      <trkpt lat="44.61588" lon="0.87364">
        <ele>171.25</ele>
        <time>2015-01-18T10:37:42Z</time>
      </trkpt>
      <trkpt lat="44.61528" lon="0.87328">
        <ele>169.81</ele>
        <time>2015-01-18T10:37:57Z</time>
      </trkpt>
      <trkpt lat="44.61524" lon="0.87326">
        <ele>169.81</ele>
        <time>2015-01-18T10:37:58Z</time>
      </trkpt>
      <trkpt lat="44.61507" lon="0.87318">
        <ele>169.81</ele>
        <time>2015-01-18T10:38:02Z</time>
      </trkpt>
      <trkpt lat="44.61462" lon="0.87298">
        <ele>169.33</ele>
        <time>2015-01-18T10:38:12Z</time>
      </trkpt>
      <trkpt lat="44.61444" lon="0.87296">
        <ele>169.33</ele>
        <time>2015-01-18T10:38:16Z</time>
      </trkpt>
      <trkpt lat="44.61434" lon="0.87296">
        <ele>169.33</ele>
        <time>2015-01-18T10:38:18Z</time>
      </trkpt>
      <trkpt lat="44.61379" lon="0.87273">
        <ele>171.25</ele>
        <time>2015-01-18T10:38:31Z</time>
      </trkpt>
      <trkpt lat="44.61359" lon="0.87266">
        <ele>171.25</ele>
        <time>2015-01-18T10:38:35Z</time>
      </trkpt>
      <trkpt lat="44.61287" lon="0.87283">
        <ele>174.14</ele>
        <time>2015-01-18T10:38:48Z</time>
      </trkpt>
      <trkpt lat="44.61245" lon="0.87274">
        <ele>176.54</ele>
        <time>2015-01-18T10:38:56Z</time>
      </trkpt>
      <trkpt lat="44.61176" lon="0.87225">
        <ele>175.58</ele>
        <time>2015-01-18T10:39:09Z</time>
      </trkpt>
      <trkpt lat="44.61141" lon="0.87202">
        <ele>177.5</ele>
        <time>2015-01-18T10:39:17Z</time>
      </trkpt>
      <trkpt lat="44.61068" lon="0.87161">
        <ele>168.85</ele>
        <time>2015-01-18T10:39:29Z</time>
      </trkpt>
      <trkpt lat="44.61038" lon="0.87144">
        <ele>165.96</ele>
        <time>2015-01-18T10:39:34Z</time>
      </trkpt>
      <trkpt lat="44.61038" lon="0.87114">
        <ele>166.93</ele>
        <time>2015-01-18T10:39:44Z</time>
      </trkpt>
      <trkpt lat="44.61031" lon="0.87067">
        <ele>171.25</ele>
        <time>2015-01-18T10:39:56Z</time>
      </trkpt>
      <trkpt lat="44.61036" lon="0.8702">
        <ele>168.85</ele>
        <time>2015-01-18T10:40:07Z</time>
      </trkpt>
      <trkpt lat="44.61048" lon="0.86969">
        <ele>167.41</ele>
        <time>2015-01-18T10:40:18Z</time>
      </trkpt>
      <trkpt lat="44.61059" lon="0.86928">
        <ele>167.41</ele>
        <time>2015-01-18T10:40:29Z</time>
      </trkpt>
      <trkpt lat="44.61075" lon="0.86894">
        <ele>169.33</ele>
        <time>2015-01-18T10:40:39Z</time>
      </trkpt>
      <trkpt lat="44.6108" lon="0.86855">
        <ele>172.21</ele>
        <time>2015-01-18T10:40:50Z</time>
      </trkpt>
      <trkpt lat="44.61094" lon="0.86822">
        <ele>173.17</ele>
        <time>2015-01-18T10:40:59Z</time>
      </trkpt>
      <trkpt lat="44.61103" lon="0.86783">
        <ele>176.54</ele>
        <time>2015-01-18T10:41:09Z</time>
      </trkpt>
      <trkpt lat="44.61114" lon="0.86732">
        <ele>177.02</ele>
        <time>2015-01-18T10:41:22Z</time>
      </trkpt>
      <trkpt lat="44.61122" lon="0.867">
        <ele>176.06</ele>
        <time>2015-01-18T10:41:31Z</time>
      </trkpt>
      <trkpt lat="44.61132" lon="0.8667">
        <ele>177.98</ele>
        <time>2015-01-18T10:41:41Z</time>
      </trkpt>
      <trkpt lat="44.61137" lon="0.86629">
        <ele>179.9</ele>
        <time>2015-01-18T10:41:51Z</time>
      </trkpt>
      <trkpt lat="44.61142" lon="0.86607">
        <ele>182.79</ele>
        <time>2015-01-18T10:42:03Z</time>
      </trkpt>
      <trkpt lat="44.61139" lon="0.86606">
        <ele>184.23</ele>
        <time>2015-01-18T10:42:28Z</time>
      </trkpt>
      <trkpt lat="44.61139" lon="0.86605">
        <ele>181.83</ele>
        <time>2015-01-18T10:42:40Z</time>
      </trkpt>
      <trkpt lat="44.6114" lon="0.86605">
        <ele>181.35</ele>
        <time>2015-01-18T10:43:10Z</time>
      </trkpt>
      <trkpt lat="44.61142" lon="0.86607">
        <ele>179.42</ele>
        <time>2015-01-18T10:43:34Z</time>
      </trkpt>
      <trkpt lat="44.61141" lon="0.86607">
        <ele>181.35</ele>
        <time>2015-01-18T10:43:46Z</time>
      </trkpt>
      <trkpt lat="44.61113" lon="0.86624">
        <ele>183.75</ele>
        <time>2015-01-18T10:43:59Z</time>
      </trkpt>
      <trkpt lat="44.61077" lon="0.8664">
        <ele>186.63</ele>
        <time>2015-01-18T10:44:11Z</time>
      </trkpt>
      <trkpt lat="44.61033" lon="0.86646">
        <ele>185.67</ele>
        <time>2015-01-18T10:44:22Z</time>
      </trkpt>
      <trkpt lat="44.60977" lon="0.86684">
        <ele>184.71</ele>
        <time>2015-01-18T10:44:36Z</time>
      </trkpt>
      <trkpt lat="44.60939" lon="0.86711">
        <ele>183.27</ele>
        <time>2015-01-18T10:44:44Z</time>
      </trkpt>
      <trkpt lat="44.6091" lon="0.8672">
        <ele>184.23</ele>
        <time>2015-01-18T10:44:50Z</time>
      </trkpt>
      <trkpt lat="44.60855" lon="0.86764">
        <ele>189.04</ele>
        <time>2015-01-18T10:45:05Z</time>
      </trkpt>
      <trkpt lat="44.60816" lon="0.86781">
        <ele>190.48</ele>
        <time>2015-01-18T10:45:17Z</time>
      </trkpt>
      <trkpt lat="44.60772" lon="0.86767">
        <ele>189.52</ele>
        <time>2015-01-18T10:45:27Z</time>
      </trkpt>
      <trkpt lat="44.60698" lon="0.86712">
        <ele>183.75</ele>
        <time>2015-01-18T10:45:41Z</time>
      </trkpt>
      <trkpt lat="44.60661" lon="0.86688">
        <ele>181.35</ele>
        <time>2015-01-18T10:45:48Z</time>
      </trkpt>
      <trkpt lat="44.60599" lon="0.86678">
        <ele>174.14</ele>
        <time>2015-01-18T10:45:57Z</time>
      </trkpt>
      <trkpt lat="44.60581" lon="0.86673">
        <ele>171.25</ele>
        <time>2015-01-18T10:46:02Z</time>
      </trkpt>
      <trkpt lat="44.60579" lon="0.86662">
        <ele>170.29</ele>
        <time>2015-01-18T10:46:06Z</time>
      </trkpt>
      <trkpt lat="44.60598" lon="0.86625">
        <ele>172.21</ele>
        <time>2015-01-18T10:46:19Z</time>
      </trkpt>
      <trkpt lat="44.60599" lon="0.86624">
        <ele>172.21</ele>
        <time>2015-01-18T10:46:25Z</time>
      </trkpt>
      <trkpt lat="44.60605" lon="0.86611">
        <ele>173.66</ele>
        <time>2015-01-18T10:46:39Z</time>
      </trkpt>
      <trkpt lat="44.60609" lon="0.86605">
        <ele>173.17</ele>
        <time>2015-01-18T10:46:49Z</time>
      </trkpt>
      <trkpt lat="44.60621" lon="0.86594">
        <ele>172.69</ele>
        <time>2015-01-18T10:47:02Z</time>
      </trkpt>
      <trkpt lat="44.60625" lon="0.86591">
        <ele>172.69</ele>
        <time>2015-01-18T10:47:06Z</time>
      </trkpt>
      <trkpt lat="44.60636" lon="0.86597">
        <ele>174.14</ele>
        <time>2015-01-18T10:47:17Z</time>
      </trkpt>
      <trkpt lat="44.60644" lon="0.86593">
        <ele>173.66</ele>
        <time>2015-01-18T10:47:25Z</time>
      </trkpt>
      <trkpt lat="44.60654" lon="0.86577">
        <ele>172.21</ele>
        <time>2015-01-18T10:47:41Z</time>
      </trkpt>
      <trkpt lat="44.60679" lon="0.8656">
        <ele>172.21</ele>
        <time>2015-01-18T10:47:53Z</time>
      </trkpt>
      <trkpt lat="44.607" lon="0.86511">
        <ele>170.77</ele>
        <time>2015-01-18T10:48:05Z</time>
      </trkpt>
      <trkpt lat="44.60714" lon="0.86461">
        <ele>169.33</ele>
        <time>2015-01-18T10:48:16Z</time>
      </trkpt>
      <trkpt lat="44.60726" lon="0.86399">
        <ele>172.21</ele>
        <time>2015-01-18T10:48:31Z</time>
      </trkpt>
      <trkpt lat="44.60703" lon="0.86359">
        <ele>177.5</ele>
        <time>2015-01-18T10:48:43Z</time>
      </trkpt>
      <trkpt lat="44.60672" lon="0.86314">
        <ele>182.31</ele>
        <time>2015-01-18T10:48:58Z</time>
      </trkpt>
      <trkpt lat="44.60668" lon="0.86308">
        <ele>182.79</ele>
        <time>2015-01-18T10:49:01Z</time>
      </trkpt>
      <trkpt lat="44.60662" lon="0.86309">
        <ele>183.75</ele>
        <time>2015-01-18T10:49:07Z</time>
      </trkpt>
      <trkpt lat="44.60659" lon="0.86319">
        <ele>183.75</ele>
        <time>2015-01-18T10:49:24Z</time>
      </trkpt>
      <trkpt lat="44.60659" lon="0.8632">
        <ele>183.27</ele>
        <time>2015-01-18T10:49:29Z</time>
      </trkpt>
      <trkpt lat="44.60651" lon="0.86354">
        <ele>184.71</ele>
        <time>2015-01-18T10:49:39Z</time>
      </trkpt>
      <trkpt lat="44.6065" lon="0.86359">
        <ele>184.71</ele>
        <time>2015-01-18T10:49:40Z</time>
      </trkpt>
      <trkpt lat="44.60648" lon="0.86391">
        <ele>184.71</ele>
        <time>2015-01-18T10:49:45Z</time>
      </trkpt>
      <trkpt lat="44.60625" lon="0.86387">
        <ele>181.35</ele>
        <time>2015-01-18T10:49:52Z</time>
      </trkpt>
      <trkpt lat="44.6059" lon="0.86382">
        <ele>180.87</ele>
        <time>2015-01-18T10:49:59Z</time>
      </trkpt>
      <trkpt lat="44.60572" lon="0.86378">
        <ele>181.35</ele>
        <time>2015-01-18T10:50:03Z</time>
      </trkpt>
      <trkpt lat="44.60561" lon="0.86376">
        <ele>180.87</ele>
        <time>2015-01-18T10:50:05Z</time>
      </trkpt>
      <trkpt lat="44.6055" lon="0.86377">
        <ele>180.87</ele>
        <time>2015-01-18T10:50:07Z</time>
      </trkpt>
      <trkpt lat="44.6054" lon="0.86375">
        <ele>180.38</ele>
        <time>2015-01-18T10:50:09Z</time>
      </trkpt>
      <trkpt lat="44.60524" lon="0.86371">
        <ele>180.38</ele>
        <time>2015-01-18T10:50:12Z</time>
      </trkpt>
      <trkpt lat="44.60497" lon="0.86365">
        <ele>181.35</ele>
        <time>2015-01-18T10:50:20Z</time>
      </trkpt>
      <trkpt lat="44.60489" lon="0.86362">
        <ele>181.35</ele>
        <time>2015-01-18T10:50:22Z</time>
      </trkpt>
      <trkpt lat="44.60461" lon="0.86349">
        <ele>179.9</ele>
        <time>2015-01-18T10:50:27Z</time>
      </trkpt>
      <trkpt lat="44.60428" lon="0.86314">
        <ele>175.1</ele>
        <time>2015-01-18T10:50:33Z</time>
      </trkpt>
      <trkpt lat="44.60394" lon="0.86305">
        <ele>174.62</ele>
        <time>2015-01-18T10:50:41Z</time>
      </trkpt>
      <trkpt lat="44.60382" lon="0.86307">
        <ele>174.62</ele>
        <time>2015-01-18T10:50:44Z</time>
      </trkpt>
      <trkpt lat="44.60361" lon="0.86319">
        <ele>173.17</ele>
        <time>2015-01-18T10:50:48Z</time>
      </trkpt>
      <trkpt lat="44.60343" lon="0.86336">
        <ele>172.21</ele>
        <time>2015-01-18T10:50:52Z</time>
      </trkpt>
      <trkpt lat="44.60314" lon="0.86348">
        <ele>172.21</ele>
        <time>2015-01-18T10:51:00Z</time>
      </trkpt>
      <trkpt lat="44.60304" lon="0.86324">
        <ele>171.73</ele>
        <time>2015-01-18T10:51:10Z</time>
      </trkpt>
      <trkpt lat="44.60297" lon="0.86307">
        <ele>173.66</ele>
        <time>2015-01-18T10:51:17Z</time>
      </trkpt>
      <trkpt lat="44.60281" lon="0.86276">
        <ele>178.46</ele>
        <time>2015-01-18T10:51:32Z</time>
      </trkpt>
      <trkpt lat="44.60268" lon="0.86242">
        <ele>180.87</ele>
        <time>2015-01-18T10:51:48Z</time>
      </trkpt>
      <trkpt lat="44.60245" lon="0.86202">
        <ele>181.35</ele>
        <time>2015-01-18T10:52:08Z</time>
      </trkpt>
      <trkpt lat="44.60213" lon="0.86167">
        <ele>181.35</ele>
        <time>2015-01-18T10:52:23Z</time>
      </trkpt>
      <trkpt lat="44.60192" lon="0.8613">
        <ele>181.35</ele>
        <time>2015-01-18T10:52:36Z</time>
      </trkpt>
      <trkpt lat="44.60183" lon="0.86128">
        <ele>181.35</ele>
        <time>2015-01-18T10:52:50Z</time>
      </trkpt>
      <trkpt lat="44.60181" lon="0.86129">
        <ele>179.9</ele>
        <time>2015-01-18T10:53:08Z</time>
      </trkpt>
      <trkpt lat="44.60153" lon="0.86139">
        <ele>181.35</ele>
        <time>2015-01-18T10:53:19Z</time>
      </trkpt>
      <trkpt lat="44.60099" lon="0.8616">
        <ele>182.31</ele>
        <time>2015-01-18T10:53:38Z</time>
      </trkpt>
      <trkpt lat="44.60056" lon="0.86176">
        <ele>183.75</ele>
        <time>2015-01-18T10:53:53Z</time>
      </trkpt>
      <trkpt lat="44.60014" lon="0.86169">
        <ele>182.79</ele>
        <time>2015-01-18T10:54:05Z</time>
      </trkpt>
      <trkpt lat="44.59974" lon="0.86174">
        <ele>180.87</ele>
        <time>2015-01-18T10:54:14Z</time>
      </trkpt>
      <trkpt lat="44.59966" lon="0.86178">
        <ele>181.35</ele>
        <time>2015-01-18T10:54:16Z</time>
      </trkpt>
      <trkpt lat="44.59933" lon="0.86185">
        <ele>181.35</ele>
        <time>2015-01-18T10:54:23Z</time>
      </trkpt>
      <trkpt lat="44.59903" lon="0.86182">
        <ele>179.9</ele>
        <time>2015-01-18T10:54:31Z</time>
      </trkpt>
      <trkpt lat="44.59902" lon="0.8618">
        <ele>179.42</ele>
        <time>2015-01-18T10:54:46Z</time>
      </trkpt>
      <trkpt lat="44.59897" lon="0.86184">
        <ele>181.83</ele>
        <time>2015-01-18T10:55:21Z</time>
      </trkpt>
      <trkpt lat="44.59897" lon="0.86185">
        <ele>184.71</ele>
        <time>2015-01-18T10:55:57Z</time>
      </trkpt>
      <trkpt lat="44.59898" lon="0.86182">
        <ele>184.23</ele>
        <time>2015-01-18T10:56:07Z</time>
      </trkpt>
      <trkpt lat="44.59893" lon="0.86171">
        <ele>182.31</ele>
        <time>2015-01-18T10:56:13Z</time>
      </trkpt>
      <trkpt lat="44.59883" lon="0.8616">
        <ele>181.83</ele>
        <time>2015-01-18T10:56:20Z</time>
      </trkpt>
      <trkpt lat="44.59883" lon="0.86146">
        <ele>180.38</ele>
        <time>2015-01-18T10:56:24Z</time>
      </trkpt>
      <trkpt lat="44.59886" lon="0.86126">
        <ele>178.46</ele>
        <time>2015-01-18T10:56:28Z</time>
      </trkpt>
      <trkpt lat="44.59881" lon="0.86104">
        <ele>177.98</ele>
        <time>2015-01-18T10:56:32Z</time>
      </trkpt>
      <trkpt lat="44.59876" lon="0.86096">
        <ele>177.5</ele>
        <time>2015-01-18T10:56:34Z</time>
      </trkpt>
      <trkpt lat="44.59869" lon="0.86049">
        <ele>175.58</ele>
        <time>2015-01-18T10:56:42Z</time>
      </trkpt>
      <trkpt lat="44.59866" lon="0.86019">
        <ele>175.1</ele>
        <time>2015-01-18T10:56:47Z</time>
      </trkpt>
      <trkpt lat="44.59862" lon="0.86001">
        <ele>175.1</ele>
        <time>2015-01-18T10:56:50Z</time>
      </trkpt>
      <trkpt lat="44.59837" lon="0.85946">
        <ele>173.17</ele>
        <time>2015-01-18T10:57:01Z</time>
      </trkpt>
      <trkpt lat="44.59837" lon="0.85922">
        <ele>171.73</ele>
        <time>2015-01-18T10:57:05Z</time>
      </trkpt>
      <trkpt lat="44.59834" lon="0.85886">
        <ele>172.21</ele>
        <time>2015-01-18T10:57:11Z</time>
      </trkpt>
      <trkpt lat="44.5983" lon="0.85867">
        <ele>173.17</ele>
        <time>2015-01-18T10:57:14Z</time>
      </trkpt>
      <trkpt lat="44.59832" lon="0.85793">
        <ele>175.58</ele>
        <time>2015-01-18T10:57:27Z</time>
      </trkpt>
      <trkpt lat="44.59832" lon="0.85787">
        <ele>178.46</ele>
        <time>2015-01-18T10:57:37Z</time>
      </trkpt>
      <trkpt lat="44.59831" lon="0.85784">
        <ele>177.98</ele>
        <time>2015-01-18T10:57:58Z</time>
      </trkpt>
      <trkpt lat="44.59831" lon="0.85784">
        <ele>177.5</ele>
        <time>2015-01-18T10:58:03Z</time>
      </trkpt>
      <trkpt lat="44.59832" lon="0.85781">
        <ele>177.5</ele>
        <time>2015-01-18T10:58:05Z</time>
      </trkpt>
      <trkpt lat="44.59803" lon="0.85773">
        <ele>178.94</ele>
        <time>2015-01-18T10:58:16Z</time>
      </trkpt>
      <trkpt lat="44.59752" lon="0.8576">
        <ele>181.35</ele>
        <time>2015-01-18T10:58:30Z</time>
      </trkpt>
      <trkpt lat="44.59691" lon="0.85746">
        <ele>181.83</ele>
        <time>2015-01-18T10:58:45Z</time>
      </trkpt>
      <trkpt lat="44.59634" lon="0.8573">
        <ele>182.79</ele>
        <time>2015-01-18T10:59:00Z</time>
      </trkpt>
      <trkpt lat="44.59629" lon="0.85729">
        <ele>182.31</ele>
        <time>2015-01-18T10:59:01Z</time>
      </trkpt>
      <trkpt lat="44.59611" lon="0.85723">
        <ele>181.83</ele>
        <time>2015-01-18T10:59:05Z</time>
      </trkpt>
      <trkpt lat="44.59529" lon="0.85704">
        <ele>180.87</ele>
        <time>2015-01-18T10:59:19Z</time>
      </trkpt>
      <trkpt lat="44.59485" lon="0.85692">
        <ele>179.9</ele>
        <time>2015-01-18T10:59:30Z</time>
      </trkpt>
      <trkpt lat="44.59481" lon="0.85692">
        <ele>179.9</ele>
        <time>2015-01-18T10:59:31Z</time>
      </trkpt>
      <trkpt lat="44.59404" lon="0.85673">
        <ele>179.9</ele>
        <time>2015-01-18T10:59:49Z</time>
      </trkpt>
      <trkpt lat="44.59364" lon="0.85651">
        <ele>179.42</ele>
        <time>2015-01-18T11:00:01Z</time>
      </trkpt>
      <trkpt lat="44.59272" lon="0.85602">
        <ele>177.98</ele>
        <time>2015-01-18T11:00:20Z</time>
      </trkpt>
      <trkpt lat="44.59187" lon="0.85561">
        <ele>177.98</ele>
        <time>2015-01-18T11:00:35Z</time>
      </trkpt>
      <trkpt lat="44.59173" lon="0.85557">
        <ele>178.46</ele>
        <time>2015-01-18T11:00:38Z</time>
      </trkpt>
      <trkpt lat="44.59163" lon="0.85593">
        <ele>177.98</ele>
        <time>2015-01-18T11:00:46Z</time>
      </trkpt>
      <trkpt lat="44.59161" lon="0.8561">
        <ele>177.5</ele>
        <time>2015-01-18T11:00:50Z</time>
      </trkpt>
      <trkpt lat="44.5915" lon="0.85617">
        <ele>176.54</ele>
        <time>2015-01-18T11:00:54Z</time>
      </trkpt>
      <trkpt lat="44.59093" lon="0.85603">
        <ele>176.06</ele>
        <time>2015-01-18T11:01:10Z</time>
      </trkpt>
      <trkpt lat="44.5907" lon="0.85596">
        <ele>177.02</ele>
        <time>2015-01-18T11:01:19Z</time>
      </trkpt>
      <trkpt lat="44.5904" lon="0.85587">
        <ele>177.02</ele>
        <time>2015-01-18T11:01:30Z</time>
      </trkpt>
      <trkpt lat="44.59036" lon="0.85586">
        <ele>177.02</ele>
        <time>2015-01-18T11:01:31Z</time>
      </trkpt>
      <trkpt lat="44.59001" lon="0.85577">
        <ele>177.02</ele>
        <time>2015-01-18T11:01:39Z</time>
      </trkpt>
      <trkpt lat="44.58941" lon="0.85561">
        <ele>175.1</ele>
        <time>2015-01-18T11:01:53Z</time>
      </trkpt>
      <trkpt lat="44.58924" lon="0.85558">
        <ele>174.14</ele>
        <time>2015-01-18T11:01:57Z</time>
      </trkpt>
      <trkpt lat="44.58907" lon="0.85553">
        <ele>172.21</ele>
        <time>2015-01-18T11:02:02Z</time>
      </trkpt>
      <trkpt lat="44.58858" lon="0.8554">
        <ele>170.29</ele>
        <time>2015-01-18T11:02:19Z</time>
      </trkpt>
      <trkpt lat="44.58802" lon="0.85528">
        <ele>174.62</ele>
        <time>2015-01-18T11:02:31Z</time>
      </trkpt>
      <trkpt lat="44.58716" lon="0.8551">
        <ele>175.58</ele>
        <time>2015-01-18T11:02:46Z</time>
      </trkpt>
      <trkpt lat="44.5863" lon="0.8549">
        <ele>176.06</ele>
        <time>2015-01-18T11:03:02Z</time>
      </trkpt>
      <trkpt lat="44.5862" lon="0.85488">
        <ele>176.54</ele>
        <time>2015-01-18T11:03:04Z</time>
      </trkpt>
      <trkpt lat="44.58581" lon="0.85476">
        <ele>176.54</ele>
        <time>2015-01-18T11:03:12Z</time>
      </trkpt>
      <trkpt lat="44.58568" lon="0.85474">
        <ele>177.02</ele>
        <time>2015-01-18T11:03:15Z</time>
      </trkpt>
      <trkpt lat="44.58512" lon="0.85481">
        <ele>178.94</ele>
        <time>2015-01-18T11:03:27Z</time>
      </trkpt>
      <trkpt lat="44.58452" lon="0.85529">
        <ele>182.31</ele>
        <time>2015-01-18T11:03:43Z</time>
      </trkpt>
      <trkpt lat="44.58438" lon="0.85539">
        <ele>182.79</ele>
        <time>2015-01-18T11:03:47Z</time>
      </trkpt>
      <trkpt lat="44.58416" lon="0.8555">
        <ele>182.31</ele>
        <time>2015-01-18T11:03:52Z</time>
      </trkpt>
      <trkpt lat="44.58338" lon="0.85575">
        <ele>179.42</ele>
        <time>2015-01-18T11:04:08Z</time>
      </trkpt>
      <trkpt lat="44.58259" lon="0.85602">
        <ele>177.02</ele>
        <time>2015-01-18T11:04:23Z</time>
      </trkpt>
      <trkpt lat="44.5825" lon="0.85607">
        <ele>177.5</ele>
        <time>2015-01-18T11:04:25Z</time>
      </trkpt>
      <trkpt lat="44.58237" lon="0.85622">
        <ele>177.98</ele>
        <time>2015-01-18T11:04:29Z</time>
      </trkpt>
      <trkpt lat="44.58228" lon="0.85641">
        <ele>178.46</ele>
        <time>2015-01-18T11:04:33Z</time>
      </trkpt>
      <trkpt lat="44.58179" lon="0.85733">
        <ele>176.06</ele>
        <time>2015-01-18T11:04:49Z</time>
      </trkpt>
      <trkpt lat="44.58171" lon="0.85746">
        <ele>175.58</ele>
        <time>2015-01-18T11:04:51Z</time>
      </trkpt>
      <trkpt lat="44.58153" lon="0.85765">
        <ele>175.58</ele>
        <time>2015-01-18T11:04:55Z</time>
      </trkpt>
      <trkpt lat="44.58093" lon="0.858">
        <ele>178.46</ele>
        <time>2015-01-18T11:05:09Z</time>
      </trkpt>
      <trkpt lat="44.5802" lon="0.85834">
        <ele>176.06</ele>
        <time>2015-01-18T11:05:25Z</time>
      </trkpt>
      <trkpt lat="44.57929" lon="0.85881">
        <ele>174.14</ele>
        <time>2015-01-18T11:05:41Z</time>
      </trkpt>
      <trkpt lat="44.57873" lon="0.85907">
        <ele>175.1</ele>
        <time>2015-01-18T11:05:52Z</time>
      </trkpt>
      <trkpt lat="44.57851" lon="0.85903">
        <ele>175.1</ele>
        <time>2015-01-18T11:06:01Z</time>
      </trkpt>
      <trkpt lat="44.57849" lon="0.85903">
        <ele>175.1</ele>
        <time>2015-01-18T11:06:02Z</time>
      </trkpt>
      <trkpt lat="44.57836" lon="0.85898">
        <ele>174.62</ele>
        <time>2015-01-18T11:06:06Z</time>
      </trkpt>
      <trkpt lat="44.57812" lon="0.85867">
        <ele>172.21</ele>
        <time>2015-01-18T11:06:12Z</time>
      </trkpt>
      <trkpt lat="44.578" lon="0.85841">
        <ele>170.77</ele>
        <time>2015-01-18T11:06:15Z</time>
      </trkpt>
      <trkpt lat="44.57791" lon="0.85825">
        <ele>169.33</ele>
        <time>2015-01-18T11:06:17Z</time>
      </trkpt>
      <trkpt lat="44.57783" lon="0.85808">
        <ele>167.89</ele>
        <time>2015-01-18T11:06:19Z</time>
      </trkpt>
      <trkpt lat="44.5776" lon="0.85752">
        <ele>165.48</ele>
        <time>2015-01-18T11:06:25Z</time>
      </trkpt>
      <trkpt lat="44.57742" lon="0.85701">
        <ele>163.56</ele>
        <time>2015-01-18T11:06:31Z</time>
      </trkpt>
      <trkpt lat="44.57737" lon="0.85688">
        <ele>163.08</ele>
        <time>2015-01-18T11:06:33Z</time>
      </trkpt>
      <trkpt lat="44.57729" lon="0.85669">
        <ele>162.12</ele>
        <time>2015-01-18T11:06:36Z</time>
      </trkpt>
      <trkpt lat="44.57725" lon="0.85651">
        <ele>162.12</ele>
        <time>2015-01-18T11:06:39Z</time>
      </trkpt>
      <trkpt lat="44.5772" lon="0.85613">
        <ele>163.08</ele>
        <time>2015-01-18T11:06:45Z</time>
      </trkpt>
      <trkpt lat="44.57711" lon="0.85566">
        <ele>163.08</ele>
        <time>2015-01-18T11:06:53Z</time>
      </trkpt>
      <trkpt lat="44.57721" lon="0.855">
        <ele>164.52</ele>
        <time>2015-01-18T11:07:05Z</time>
      </trkpt>
      <trkpt lat="44.57719" lon="0.85487">
        <ele>165</ele>
        <time>2015-01-18T11:07:08Z</time>
      </trkpt>
      <trkpt lat="44.57694" lon="0.85455">
        <ele>168.37</ele>
        <time>2015-01-18T11:07:18Z</time>
      </trkpt>
      <trkpt lat="44.57687" lon="0.85452">
        <ele>169.33</ele>
        <time>2015-01-18T11:07:20Z</time>
      </trkpt>
      <trkpt lat="44.57676" lon="0.85446">
        <ele>170.29</ele>
        <time>2015-01-18T11:07:25Z</time>
      </trkpt>
      <trkpt lat="44.57654" lon="0.85422">
        <ele>174.14</ele>
        <time>2015-01-18T11:07:36Z</time>
      </trkpt>
      <trkpt lat="44.5765" lon="0.85421">
        <ele>175.58</ele>
        <time>2015-01-18T11:07:38Z</time>
      </trkpt>
      <trkpt lat="44.57641" lon="0.85434">
        <ele>178.94</ele>
        <time>2015-01-18T11:07:45Z</time>
      </trkpt>
      <trkpt lat="44.5763" lon="0.85462">
        <ele>180.38</ele>
        <time>2015-01-18T11:07:56Z</time>
      </trkpt>
      <trkpt lat="44.57622" lon="0.85464">
        <ele>182.79</ele>
        <time>2015-01-18T11:08:02Z</time>
      </trkpt>
      <trkpt lat="44.57615" lon="0.85462">
        <ele>183.27</ele>
        <time>2015-01-18T11:08:18Z</time>
      </trkpt>
      <trkpt lat="44.57614" lon="0.85462">
        <ele>181.35</ele>
        <time>2015-01-18T11:08:46Z</time>
      </trkpt>
      <trkpt lat="44.57613" lon="0.85464">
        <ele>182.31</ele>
        <time>2015-01-18T11:09:15Z</time>
      </trkpt>
      <trkpt lat="44.57612" lon="0.85462">
        <ele>184.71</ele>
        <time>2015-01-18T11:09:50Z</time>
      </trkpt>
      <trkpt lat="44.57591" lon="0.85452">
        <ele>185.19</ele>
        <time>2015-01-18T11:10:07Z</time>
      </trkpt>
      <trkpt lat="44.57534" lon="0.85415">
        <ele>177.98</ele>
        <time>2015-01-18T11:10:16Z</time>
      </trkpt>
      <trkpt lat="44.57518" lon="0.85403">
        <ele>176.54</ele>
        <time>2015-01-18T11:10:18Z</time>
      </trkpt>
      <trkpt lat="44.57488" lon="0.85365">
        <ele>175.1</ele>
        <time>2015-01-18T11:10:23Z</time>
      </trkpt>
      <trkpt lat="44.57414" lon="0.85305">
        <ele>175.1</ele>
        <time>2015-01-18T11:10:36Z</time>
      </trkpt>
      <trkpt lat="44.57378" lon="0.8527">
        <ele>175.58</ele>
        <time>2015-01-18T11:10:43Z</time>
      </trkpt>
      <trkpt lat="44.5736" lon="0.85238">
        <ele>175.1</ele>
        <time>2015-01-18T11:10:47Z</time>
      </trkpt>
      <trkpt lat="44.57304" lon="0.85109">
        <ele>170.77</ele>
        <time>2015-01-18T11:11:01Z</time>
      </trkpt>
      <trkpt lat="44.57278" lon="0.85055">
        <ele>169.33</ele>
        <time>2015-01-18T11:11:07Z</time>
      </trkpt>
      <trkpt lat="44.57254" lon="0.84977">
        <ele>167.89</ele>
        <time>2015-01-18T11:11:15Z</time>
      </trkpt>
      <trkpt lat="44.57248" lon="0.84949">
        <ele>167.89</ele>
        <time>2015-01-18T11:11:18Z</time>
      </trkpt>
      <trkpt lat="44.57244" lon="0.84901">
        <ele>169.81</ele>
        <time>2015-01-18T11:11:24Z</time>
      </trkpt>
      <trkpt lat="44.57227" lon="0.84829">
        <ele>173.66</ele>
        <time>2015-01-18T11:11:35Z</time>
      </trkpt>
      <trkpt lat="44.57226" lon="0.84815">
        <ele>173.66</ele>
        <time>2015-01-18T11:11:37Z</time>
      </trkpt>
      <trkpt lat="44.5722" lon="0.84706">
        <ele>172.69</ele>
        <time>2015-01-18T11:11:52Z</time>
      </trkpt>
      <trkpt lat="44.57219" lon="0.84679">
        <ele>172.21</ele>
        <time>2015-01-18T11:11:55Z</time>
      </trkpt>
      <trkpt lat="44.57221" lon="0.84634">
        <ele>170.77</ele>
        <time>2015-01-18T11:12:00Z</time>
      </trkpt>
      <trkpt lat="44.57205" lon="0.84504">
        <ele>167.41</ele>
        <time>2015-01-18T11:12:13Z</time>
      </trkpt>
      <trkpt lat="44.57158" lon="0.84364">
        <ele>161.16</ele>
        <time>2015-01-18T11:12:26Z</time>
      </trkpt>
      <trkpt lat="44.57116" lon="0.84216">
        <ele>153.47</ele>
        <time>2015-01-18T11:12:38Z</time>
      </trkpt>
      <trkpt lat="44.571" lon="0.84177">
        <ele>152.51</ele>
        <time>2015-01-18T11:12:42Z</time>
      </trkpt>
      <trkpt lat="44.57076" lon="0.84161">
        <ele>152.51</ele>
        <time>2015-01-18T11:12:46Z</time>
      </trkpt>
      <trkpt lat="44.57019" lon="0.84175">
        <ele>155.39</ele>
        <time>2015-01-18T11:12:55Z</time>
      </trkpt>
      <trkpt lat="44.56989" lon="0.84177">
        <ele>155.87</ele>
        <time>2015-01-18T11:13:00Z</time>
      </trkpt>
      <trkpt lat="44.56956" lon="0.84144">
        <ele>152.99</ele>
        <time>2015-01-18T11:13:06Z</time>
      </trkpt>
      <trkpt lat="44.56914" lon="0.84031">
        <ele>154.91</ele>
        <time>2015-01-18T11:13:21Z</time>
      </trkpt>
      <trkpt lat="44.56894" lon="0.83992">
        <ele>155.39</ele>
        <time>2015-01-18T11:13:27Z</time>
      </trkpt>
      <trkpt lat="44.56878" lon="0.83945">
        <ele>154.91</ele>
        <time>2015-01-18T11:13:33Z</time>
      </trkpt>
      <trkpt lat="44.56885" lon="0.83865">
        <ele>152.51</ele>
        <time>2015-01-18T11:13:42Z</time>
      </trkpt>
      <trkpt lat="44.56897" lon="0.83835">
        <ele>153.47</ele>
        <time>2015-01-18T11:13:46Z</time>
      </trkpt>
      <trkpt lat="44.56952" lon="0.83786">
        <ele>157.79</ele>
        <time>2015-01-18T11:13:58Z</time>
      </trkpt>
      <trkpt lat="44.5696" lon="0.83743">
        <ele>157.31</ele>
        <time>2015-01-18T11:14:05Z</time>
      </trkpt>
      <trkpt lat="44.56958" lon="0.83737">
        <ele>157.31</ele>
        <time>2015-01-18T11:14:06Z</time>
      </trkpt>
      <trkpt lat="44.56917" lon="0.83644">
        <ele>154.91</ele>
        <time>2015-01-18T11:14:19Z</time>
      </trkpt>
      <trkpt lat="44.56885" lon="0.83579">
        <ele>153.47</ele>
        <time>2015-01-18T11:14:31Z</time>
      </trkpt>
      <trkpt lat="44.56885" lon="0.8358">
        <ele>152.99</ele>
        <time>2015-01-18T11:14:47Z</time>
      </trkpt>
      <trkpt lat="44.56881" lon="0.83575">
        <ele>152.99</ele>
        <time>2015-01-18T11:15:04Z</time>
      </trkpt>
      <trkpt lat="44.56856" lon="0.83515">
        <ele>152.99</ele>
        <time>2015-01-18T11:15:16Z</time>
      </trkpt>
      <trkpt lat="44.56806" lon="0.83393">
        <ele>149.62</ele>
        <time>2015-01-18T11:15:33Z</time>
      </trkpt>
      <trkpt lat="44.56735" lon="0.83246">
        <ele>146.74</ele>
        <time>2015-01-18T11:15:51Z</time>
      </trkpt>
      <trkpt lat="44.56679" lon="0.83107">
        <ele>143.85</ele>
        <time>2015-01-18T11:16:07Z</time>
      </trkpt>
      <trkpt lat="44.56621" lon="0.82948">
        <ele>142.89</ele>
        <time>2015-01-18T11:16:22Z</time>
      </trkpt>
      <trkpt lat="44.56605" lon="0.82806">
        <ele>143.85</ele>
        <time>2015-01-18T11:16:35Z</time>
      </trkpt>
      <trkpt lat="44.5658" lon="0.82673">
        <ele>144.34</ele>
        <time>2015-01-18T11:16:49Z</time>
      </trkpt>
      <trkpt lat="44.56548" lon="0.82547">
        <ele>142.89</ele>
        <time>2015-01-18T11:17:03Z</time>
      </trkpt>
      <trkpt lat="44.56545" lon="0.82538">
        <ele>143.37</ele>
        <time>2015-01-18T11:17:04Z</time>
      </trkpt>
      <trkpt lat="44.56538" lon="0.82521">
        <ele>143.37</ele>
        <time>2015-01-18T11:17:06Z</time>
      </trkpt>
      <trkpt lat="44.56526" lon="0.825">
        <ele>143.85</ele>
        <time>2015-01-18T11:17:09Z</time>
      </trkpt>
      <trkpt lat="44.56455" lon="0.82433">
        <ele>145.3</ele>
        <time>2015-01-18T11:17:24Z</time>
      </trkpt>
      <trkpt lat="44.56385" lon="0.82343">
        <ele>139.53</ele>
        <time>2015-01-18T11:17:36Z</time>
      </trkpt>
      <trkpt lat="44.563" lon="0.82211">
        <ele>137.61</ele>
        <time>2015-01-18T11:17:50Z</time>
      </trkpt>
      <trkpt lat="44.5624" lon="0.82135">
        <ele>140.97</ele>
        <time>2015-01-18T11:18:03Z</time>
      </trkpt>
      <trkpt lat="44.56212" lon="0.821">
        <ele>142.41</ele>
        <time>2015-01-18T11:18:12Z</time>
      </trkpt>
      <trkpt lat="44.56176" lon="0.82039">
        <ele>143.37</ele>
        <time>2015-01-18T11:18:28Z</time>
      </trkpt>
      <trkpt lat="44.56164" lon="0.82034">
        <ele>144.34</ele>
        <time>2015-01-18T11:18:39Z</time>
      </trkpt>
    </trkseg>
  </trk>
</gpx>